<?xml version="1.0" encoding="UTF-8" standalone="no" ?>
<gpx xmlns="http://www.topografix.com/GPX/1/1" xmlns:xsi="http://www.w3.org/2001/XMLSchema-instance" xsi:schemaLocation="http://www.topografix.com/GPX/1/1 http://www.topografix.com/GPX/1/1/gpx.xsd" version="1.1" creator="VisuGPX - https://www.visugpx.com">
  <metadata>
    <name>Aire sur l'adour - Saint Jean Pied de fort</name>
    <desc><![CDATA[Randonnée sur le GR®65 Via Podiensis. Pèlerinage de Saint Jacques de Compostelle, à travers les Landes et les Pyrénées-Atlantique de Aire-sur-l'Adour à Larribar-Sorhapuru. Gîtes d'étapes, Chambres d'hôtes, Hôtels, Camping, Refuges, Auberges.]]></desc>
  </metadata>
  <trk>
    <name><![CDATA[GR®65 Via Podiensis De Aire-sur-l'Adour (Landes) à Larribar-Sorhapuru (Pyrénées-Atlantiques) (2021)]]></name>
    <desc><![CDATA[Randonnée sur le GR®65 Via Podiensis. Pèlerinage de Saint Jacques de Compostelle, à travers les Landes et les Pyrénées-Atlantique de Aire-sur-l'Adour à Larribar-Sorhapuru. Gîtes d'étapes, Chambres d'hôtes, Hôtels, Camping, Refuges, Auberges.]]></desc>
    <extensions>
      <line xmlns="http://www.topografix.com/GPX/gpx_style/0/2">
        <color>0000FF</color>
        <width>4</width>
      </line>
    </extensions>
    <trkseg>
      <trkpt lat="43.6999" lon="-0.26317">
        <ele>80.519</ele>
        <time>2021-01-03T16:18:00Z</time>
      </trkpt>
      <trkpt lat="43.70002" lon="-0.26427">
        <ele>82.909</ele>
        <time>2019-03-30T14:31:45Z</time>
      </trkpt>
      <trkpt lat="43.69986" lon="-0.26628">
        <ele>85.008</ele>
        <time>2019-03-30T14:32:05Z</time>
      </trkpt>
      <trkpt lat="43.69964" lon="-0.26695">
        <ele>91.817</ele>
        <time>2019-03-30T14:32:25Z</time>
      </trkpt>
      <trkpt lat="43.69732" lon="-0.26897">
        <ele>125.334</ele>
        <time>2019-03-30T14:32:45Z</time>
      </trkpt>
      <trkpt lat="43.68963" lon="-0.27419">
        <ele>150.084</ele>
        <time>2019-03-30T14:33:05Z</time>
      </trkpt>
      <trkpt lat="43.6898" lon="-0.27692">
        <ele>150.054</ele>
        <time>2019-03-30T14:33:25Z</time>
      </trkpt>
      <trkpt lat="43.68855" lon="-0.27784">
        <ele>152.099</ele>
        <time>2016-09-25T15:54:42Z</time>
      </trkpt>
      <trkpt lat="43.68855" lon="-0.27839">
        <ele>152.038</ele>
        <time>2016-09-25T15:55:02Z</time>
      </trkpt>
      <trkpt lat="43.68788" lon="-0.27906">
        <ele>152.055</ele>
        <time>2016-09-25T15:55:22Z</time>
      </trkpt>
      <trkpt lat="43.68746" lon="-0.27972">
        <ele>152.089</ele>
        <time>2016-09-25T15:55:42Z</time>
      </trkpt>
      <trkpt lat="43.68664" lon="-0.28069">
        <ele>151.567</ele>
        <time>2016-09-25T15:56:02Z</time>
      </trkpt>
      <trkpt lat="43.6861" lon="-0.28097">
        <ele>151.681</ele>
        <time>2016-09-25T15:56:22Z</time>
      </trkpt>
      <trkpt lat="43.68453" lon="-0.28078">
        <ele>155.019</ele>
        <time>2016-09-25T15:56:42Z</time>
      </trkpt>
      <trkpt lat="43.68391" lon="-0.28178">
        <ele>155.008</ele>
        <time>2016-09-25T15:57:02Z</time>
      </trkpt>
      <trkpt lat="43.68354" lon="-0.28292">
        <ele>151.032</ele>
        <time>2016-09-25T15:57:22Z</time>
      </trkpt>
      <trkpt lat="43.68211" lon="-0.28374">
        <ele>136.649</ele>
        <time>2016-09-25T15:57:42Z</time>
      </trkpt>
      <trkpt lat="43.68158" lon="-0.28421">
        <ele>128.229</ele>
        <time>2016-09-25T15:58:02Z</time>
      </trkpt>
      <trkpt lat="43.68045" lon="-0.28434">
        <ele>116.689</ele>
        <time>2016-09-25T15:58:22Z</time>
      </trkpt>
      <trkpt lat="43.68011" lon="-0.28397">
        <ele>118.634</ele>
        <time>2016-09-25T15:58:42Z</time>
      </trkpt>
      <trkpt lat="43.6795" lon="-0.28399">
        <ele>114.673</ele>
        <time>2016-09-25T15:59:02Z</time>
      </trkpt>
      <trkpt lat="43.67915" lon="-0.2838">
        <ele>119.75</ele>
        <time>2016-09-25T15:59:22Z</time>
      </trkpt>
      <trkpt lat="43.67857" lon="-0.28434">
        <ele>113.364</ele>
        <time>2016-09-25T15:59:42Z</time>
      </trkpt>
      <trkpt lat="43.67811" lon="-0.28421">
        <ele>113.434</ele>
        <time>2016-09-25T16:00:02Z</time>
      </trkpt>
      <trkpt lat="43.67713" lon="-0.28348">
        <ele>118.955</ele>
        <time>2016-09-25T16:00:22Z</time>
      </trkpt>
      <trkpt lat="43.67686" lon="-0.28359">
        <ele>115.31</ele>
        <time>2016-09-25T16:00:42Z</time>
      </trkpt>
      <trkpt lat="43.67677" lon="-0.28316">
        <ele>124.208</ele>
        <time>2016-09-25T16:01:02Z</time>
      </trkpt>
      <trkpt lat="43.67624" lon="-0.28275">
        <ele>128.979</ele>
        <time>2016-09-25T16:01:22Z</time>
      </trkpt>
      <trkpt lat="43.67516" lon="-0.28311">
        <ele>117.856</ele>
        <time>2016-09-25T16:01:42Z</time>
      </trkpt>
      <trkpt lat="43.67471" lon="-0.28275">
        <ele>124.416</ele>
        <time>2016-09-25T16:02:02Z</time>
      </trkpt>
      <trkpt lat="43.6733" lon="-0.28278">
        <ele>120.096</ele>
        <time>2019-03-30T14:41:25Z</time>
      </trkpt>
      <trkpt lat="43.67207" lon="-0.28236">
        <ele>118.241</ele>
        <time>2019-03-30T14:41:45Z</time>
      </trkpt>
      <trkpt lat="43.67069" lon="-0.28247">
        <ele>115.14</ele>
        <time>2016-09-25T16:02:42Z</time>
      </trkpt>
      <trkpt lat="43.67058" lon="-0.28329">
        <ele>114.957</ele>
        <time>2016-09-25T16:03:02Z</time>
      </trkpt>
      <trkpt lat="43.66991" lon="-0.28395">
        <ele>115.091</ele>
        <time>2016-09-25T16:03:22Z</time>
      </trkpt>
      <trkpt lat="43.66965" lon="-0.28447">
        <ele>115.882</ele>
        <time>2016-09-25T16:03:42Z</time>
      </trkpt>
      <trkpt lat="43.66833" lon="-0.28638">
        <ele>124.943</ele>
        <time>2019-03-30T14:43:25Z</time>
      </trkpt>
      <trkpt lat="43.6703" lon="-0.28771">
        <ele>134.217</ele>
        <time>2016-09-25T16:04:42Z</time>
      </trkpt>
      <trkpt lat="43.6707" lon="-0.28824">
        <ele>140.608</ele>
        <time>2016-09-25T16:05:02Z</time>
      </trkpt>
      <trkpt lat="43.6707" lon="-0.28914">
        <ele>150.614</ele>
        <time>2016-09-25T16:05:22Z</time>
      </trkpt>
      <trkpt lat="43.67004" lon="-0.29371">
        <ele>160.081</ele>
        <time>2016-09-25T16:05:42Z</time>
      </trkpt>
      <trkpt lat="43.66921" lon="-0.29719">
        <ele>159.881</ele>
        <time>2016-09-25T16:06:02Z</time>
      </trkpt>
      <trkpt lat="43.66935" lon="-0.2988">
        <ele>157.391</ele>
        <time>2016-09-25T16:06:22Z</time>
      </trkpt>
      <trkpt lat="43.6676" lon="-0.29927">
        <ele>160.056</ele>
        <time>2016-09-25T16:06:42Z</time>
      </trkpt>
      <trkpt lat="43.66696" lon="-0.29934">
        <ele>160.055</ele>
        <time>2016-09-25T16:07:02Z</time>
      </trkpt>
      <trkpt lat="43.66328" lon="-0.30084">
        <ele>162.032</ele>
        <time>2016-09-25T16:07:22Z</time>
      </trkpt>
      <trkpt lat="43.66055" lon="-0.29916">
        <ele>163.016</ele>
        <time>2016-09-25T16:07:42Z</time>
      </trkpt>
      <trkpt lat="43.6603" lon="-0.29936">
        <ele>163.971</ele>
        <time>2016-09-25T16:08:02Z</time>
      </trkpt>
      <trkpt lat="43.66046" lon="-0.302">
        <ele>164.441</ele>
        <time>2016-09-25T16:08:22Z</time>
      </trkpt>
      <trkpt lat="43.65204" lon="-0.30303">
        <ele>168.115</ele>
        <time>2016-09-25T16:08:42Z</time>
      </trkpt>
      <trkpt lat="43.64889" lon="-0.30335">
        <ele>167.008</ele>
        <time>2016-09-25T16:09:02Z</time>
      </trkpt>
      <trkpt lat="43.64459" lon="-0.30434">
        <ele>170.023</ele>
        <time>2019-03-30T14:48:25Z</time>
      </trkpt>
      <trkpt lat="43.64518" lon="-0.30682">
        <ele>167.04</ele>
        <time>2016-09-25T16:09:42Z</time>
      </trkpt>
      <trkpt lat="43.64368" lon="-0.31421">
        <ele>172.01</ele>
        <time>2016-09-25T16:10:02Z</time>
      </trkpt>
      <trkpt lat="43.64273" lon="-0.31395">
        <ele>172.09</ele>
        <time>2016-09-25T16:10:22Z</time>
      </trkpt>
      <trkpt lat="43.63731" lon="-0.31101">
        <ele>174.784</ele>
        <time>2016-09-25T16:11:02Z</time>
      </trkpt>
      <trkpt lat="43.63183" lon="-0.30846">
        <ele>175.091</ele>
        <time>2016-09-25T16:11:22Z</time>
      </trkpt>
      <trkpt lat="43.62892" lon="-0.30831">
        <ele>175.075</ele>
        <time>2016-09-25T16:11:42Z</time>
      </trkpt>
      <trkpt lat="43.62588" lon="-0.30745">
        <ele>177.024</ele>
        <time>2016-09-25T16:12:02Z</time>
      </trkpt>
      <trkpt lat="43.62414" lon="-0.30734">
        <ele>179.004</ele>
        <time>2016-09-25T16:12:22Z</time>
      </trkpt>
      <trkpt lat="43.62335" lon="-0.30697">
        <ele>179.114</ele>
        <time>2016-09-25T16:12:42Z</time>
      </trkpt>
      <trkpt lat="43.62224" lon="-0.30672">
        <ele>180.008</ele>
        <time>2016-09-25T16:13:02Z</time>
      </trkpt>
      <trkpt lat="43.62091" lon="-0.30594">
        <ele>180.098</ele>
        <time>2016-09-25T16:13:22Z</time>
      </trkpt>
      <trkpt lat="43.61723" lon="-0.30322">
        <ele>182.025</ele>
        <time>2016-09-25T16:13:42Z</time>
      </trkpt>
      <trkpt lat="43.61364" lon="-0.30097">
        <ele>184.055</ele>
        <time>2016-09-25T16:14:02Z</time>
      </trkpt>
      <trkpt lat="43.61199" lon="-0.29865">
        <ele>185.015</ele>
        <time>2016-09-25T16:14:22Z</time>
      </trkpt>
      <trkpt lat="43.60961" lon="-0.29875">
        <ele>185.07</ele>
        <time>2019-03-30T14:53:45Z</time>
      </trkpt>
      <trkpt lat="43.60657" lon="-0.29823">
        <ele>185.069</ele>
        <time>2019-03-30T14:54:05Z</time>
      </trkpt>
      <trkpt lat="43.60645" lon="-0.30139">
        <ele>185.026</ele>
        <time>2019-03-30T14:54:25Z</time>
      </trkpt>
      <trkpt lat="43.60577" lon="-0.30141">
        <ele>185.03</ele>
        <time>2019-03-30T14:54:45Z</time>
      </trkpt>
      <trkpt lat="43.60557" lon="-0.30568">
        <ele>182.723</ele>
        <time>2019-03-30T14:55:05Z</time>
      </trkpt>
      <trkpt lat="43.60466" lon="-0.30554">
        <ele>176.483</ele>
        <time>2016-09-25T16:17:22Z</time>
      </trkpt>
      <trkpt lat="43.60413" lon="-0.30618">
        <ele>171.211</ele>
        <time>2016-09-25T16:17:42Z</time>
      </trkpt>
      <trkpt lat="43.60307" lon="-0.30573">
        <ele>173.308</ele>
        <time>2016-09-25T16:18:02Z</time>
      </trkpt>
      <trkpt lat="43.60248" lon="-0.30588">
        <ele>170.038</ele>
        <time>2016-09-25T16:18:22Z</time>
      </trkpt>
      <trkpt lat="43.60298" lon="-0.30725">
        <ele>169.055</ele>
        <time>2019-03-30T14:56:45Z</time>
      </trkpt>
      <trkpt lat="43.60337" lon="-0.31034">
        <ele>181.415</ele>
        <time>2016-09-25T16:19:02Z</time>
      </trkpt>
      <trkpt lat="43.60356" lon="-0.31107">
        <ele>184.725</ele>
        <time>2019-03-30T14:57:25Z</time>
      </trkpt>
      <trkpt lat="43.60343" lon="-0.31403">
        <ele>187.59</ele>
        <time>2016-09-25T16:20:02Z</time>
      </trkpt>
      <trkpt lat="43.60293" lon="-0.31484">
        <ele>188.029</ele>
        <time>2019-03-30T14:58:05Z</time>
      </trkpt>
      <trkpt lat="43.60203" lon="-0.31575">
        <ele>188.836</ele>
        <time>2016-09-25T16:20:42Z</time>
      </trkpt>
      <trkpt lat="43.60135" lon="-0.3168">
        <ele>188.03</ele>
        <time>2016-09-25T16:21:02Z</time>
      </trkpt>
      <trkpt lat="43.60175" lon="-0.31818">
        <ele>186.359</ele>
        <time>2016-09-25T16:21:22Z</time>
      </trkpt>
      <trkpt lat="43.60205" lon="-0.32069">
        <ele>188.003</ele>
        <time>2016-09-25T16:21:42Z</time>
      </trkpt>
      <trkpt lat="43.60159" lon="-0.32515">
        <ele>201.223</ele>
        <time>2019-03-30T14:59:45Z</time>
      </trkpt>
      <trkpt lat="43.60143" lon="-0.32594">
        <ele>209.808</ele>
        <time>2019-03-30T15:00:05Z</time>
      </trkpt>
      <trkpt lat="43.60034" lon="-0.32665">
        <ele>219.921</ele>
        <time>2019-03-30T15:00:25Z</time>
      </trkpt>
      <trkpt lat="43.59993" lon="-0.32724">
        <ele>217.668</ele>
        <time>2019-03-30T15:00:45Z</time>
      </trkpt>
      <trkpt lat="43.59863" lon="-0.3268">
        <ele>213.118</ele>
        <time>2016-09-25T16:23:22Z</time>
      </trkpt>
      <trkpt lat="43.59812" lon="-0.32682">
        <ele>210.898</ele>
        <time>2016-09-25T16:23:42Z</time>
      </trkpt>
      <trkpt lat="43.59774" lon="-0.32717">
        <ele>208.053</ele>
        <time>2019-03-30T15:01:45Z</time>
      </trkpt>
      <trkpt lat="43.59661" lon="-0.32721">
        <ele>215.222</ele>
        <time>2016-09-25T16:24:22Z</time>
      </trkpt>
      <trkpt lat="43.59585" lon="-0.32745">
        <ele>213.079</ele>
        <time>2016-09-25T16:24:42Z</time>
      </trkpt>
      <trkpt lat="43.59509" lon="-0.32734">
        <ele>205.543</ele>
        <time>2016-09-25T16:25:02Z</time>
      </trkpt>
      <trkpt lat="43.59501" lon="-0.32654">
        <ele>201.647</ele>
        <time>2016-09-25T16:25:22Z</time>
      </trkpt>
      <trkpt lat="43.59372" lon="-0.32655">
        <ele>204.829</ele>
        <time>2019-03-30T15:03:25Z</time>
      </trkpt>
      <trkpt lat="43.59251" lon="-0.32473">
        <ele>201.021</ele>
        <time>2019-03-30T15:03:45Z</time>
      </trkpt>
      <trkpt lat="43.59142" lon="-0.32406">
        <ele>200.008</ele>
        <time>2016-09-25T16:26:42Z</time>
      </trkpt>
      <trkpt lat="43.58948" lon="-0.32202">
        <ele>199.34</ele>
        <time>2016-09-25T16:27:02Z</time>
      </trkpt>
      <trkpt lat="43.58848" lon="-0.32189">
        <ele>199.877</ele>
        <time>2016-09-25T16:27:22Z</time>
      </trkpt>
      <trkpt lat="43.58747" lon="-0.32221">
        <ele>200.017</ele>
        <time>2016-09-25T16:27:42Z</time>
      </trkpt>
      <trkpt lat="43.58651" lon="-0.32283">
        <ele>203.697</ele>
        <time>2016-09-25T16:28:02Z</time>
      </trkpt>
      <trkpt lat="43.58251" lon="-0.32364">
        <ele>196.922</ele>
        <time>2019-03-30T15:05:45Z</time>
      </trkpt>
      <trkpt lat="43.57922" lon="-0.32093">
        <ele>200.161</ele>
        <time>2019-03-30T15:06:05Z</time>
      </trkpt>
      <trkpt lat="43.5774" lon="-0.32131">
        <ele>203.068</ele>
        <time>2016-09-25T16:29:42Z</time>
      </trkpt>
      <trkpt lat="43.576" lon="-0.32397">
        <ele>204.892</ele>
        <time>2016-09-25T16:30:22Z</time>
      </trkpt>
      <trkpt lat="43.57524" lon="-0.32589">
        <ele>210.036</ele>
        <time>2019-03-30T15:07:05Z</time>
      </trkpt>
      <trkpt lat="43.57476" lon="-0.32657">
        <ele>210.017</ele>
        <time>2016-09-25T16:31:02Z</time>
      </trkpt>
      <trkpt lat="43.57538" lon="-0.32742">
        <ele>210.018</ele>
        <time>2016-09-25T16:31:22Z</time>
      </trkpt>
      <trkpt lat="43.57664" lon="-0.32781">
        <ele>206.608</ele>
        <time>2016-09-25T16:31:42Z</time>
      </trkpt>
      <trkpt lat="43.57692" lon="-0.32931">
        <ele>207.589</ele>
        <time>2016-09-25T16:32:02Z</time>
      </trkpt>
      <trkpt lat="43.57688" lon="-0.33045">
        <ele>201.576</ele>
        <time>2016-09-25T16:32:22Z</time>
      </trkpt>
      <trkpt lat="43.57732" lon="-0.33272">
        <ele>197.176</ele>
        <time>2016-09-25T16:32:42Z</time>
      </trkpt>
      <trkpt lat="43.57729" lon="-0.33384">
        <ele>192.726</ele>
        <time>2016-09-25T16:33:02Z</time>
      </trkpt>
      <trkpt lat="43.57749" lon="-0.33442">
        <ele>190.151</ele>
        <time>2016-09-25T16:33:22Z</time>
      </trkpt>
      <trkpt lat="43.5785" lon="-0.33622">
        <ele>183.67</ele>
        <time>2016-09-25T16:33:42Z</time>
      </trkpt>
      <trkpt lat="43.57856" lon="-0.33696">
        <ele>179.387</ele>
        <time>2019-03-30T15:10:25Z</time>
      </trkpt>
      <trkpt lat="43.57909" lon="-0.33787">
        <ele>167.621</ele>
        <time>2016-09-25T16:34:22Z</time>
      </trkpt>
      <trkpt lat="43.57995" lon="-0.33824">
        <ele>157.194</ele>
        <time>2019-03-30T15:11:05Z</time>
      </trkpt>
      <trkpt lat="43.58102" lon="-0.33837">
        <ele>144.457</ele>
        <time>2019-03-30T15:11:25Z</time>
      </trkpt>
      <trkpt lat="43.58127" lon="-0.33893">
        <ele>139.322</ele>
        <time>2016-09-25T16:35:02Z</time>
      </trkpt>
      <trkpt lat="43.58156" lon="-0.34013">
        <ele>136.408</ele>
        <time>2016-09-25T16:35:22Z</time>
      </trkpt>
      <trkpt lat="43.58161" lon="-0.34232">
        <ele>144.085</ele>
        <time>2016-09-25T16:35:42Z</time>
      </trkpt>
      <trkpt lat="43.58197" lon="-0.34354">
        <ele>141.692</ele>
        <time>2016-09-25T16:36:02Z</time>
      </trkpt>
      <trkpt lat="43.58212" lon="-0.34569">
        <ele>138.052</ele>
        <time>2019-03-30T15:13:05Z</time>
      </trkpt>
      <trkpt lat="43.58176" lon="-0.34647">
        <ele>133.742</ele>
        <time>2019-03-30T15:13:25Z</time>
      </trkpt>
      <trkpt lat="43.5824" lon="-0.34772">
        <ele>130.097</ele>
        <time>2016-09-25T16:37:02Z</time>
      </trkpt>
      <trkpt lat="43.58204" lon="-0.34938">
        <ele>133.716</ele>
        <time>2019-03-30T15:14:05Z</time>
      </trkpt>
      <trkpt lat="43.5829" lon="-0.34925">
        <ele>140.383</ele>
        <time>2016-09-25T16:37:42Z</time>
      </trkpt>
      <trkpt lat="43.58296" lon="-0.3506">
        <ele>147.367</ele>
        <time>2016-09-25T16:38:02Z</time>
      </trkpt>
      <trkpt lat="43.5838" lon="-0.35038">
        <ele>144.491</ele>
        <time>2016-09-25T16:38:22Z</time>
      </trkpt>
      <trkpt lat="43.5855" lon="-0.35056">
        <ele>134.981</ele>
        <time>2016-09-25T16:38:42Z</time>
      </trkpt>
      <trkpt lat="43.5862" lon="-0.35063">
        <ele>130.619</ele>
        <time>2019-03-30T15:15:45Z</time>
      </trkpt>
      <trkpt lat="43.58696" lon="-0.3506">
        <ele>132.108</ele>
        <time>2016-09-25T16:39:22Z</time>
      </trkpt>
      <trkpt lat="43.58815" lon="-0.35083">
        <ele>131.055</ele>
        <time>2019-03-30T15:16:25Z</time>
      </trkpt>
      <trkpt lat="43.58944" lon="-0.35075">
        <ele>127.722</ele>
        <time>2016-09-25T16:40:02Z</time>
      </trkpt>
      <trkpt lat="43.58687" lon="-0.35901">
        <ele>165.192</ele>
        <time>2019-03-30T15:17:05Z</time>
      </trkpt>
      <trkpt lat="43.58691" lon="-0.36145">
        <ele>173.952</ele>
        <time>2019-03-30T15:17:25Z</time>
      </trkpt>
      <trkpt lat="43.58687" lon="-0.36273">
        <ele>176.577</ele>
        <time>2019-03-30T15:17:45Z</time>
      </trkpt>
      <trkpt lat="43.58711" lon="-0.36478">
        <ele>182.116</ele>
        <time>2016-09-25T16:41:22Z</time>
      </trkpt>
      <trkpt lat="43.58838" lon="-0.36553">
        <ele>184.213</ele>
        <time>2019-03-30T15:18:25Z</time>
      </trkpt>
      <trkpt lat="43.58623" lon="-0.36697">
        <ele>156.947</ele>
        <time>2016-09-25T16:42:02Z</time>
      </trkpt>
      <trkpt lat="43.58492" lon="-0.36832">
        <ele>157.049</ele>
        <time>2016-09-25T16:42:42Z</time>
      </trkpt>
      <trkpt lat="43.58239" lon="-0.37118">
        <ele>141.302</ele>
        <time>2016-09-25T16:43:42Z</time>
      </trkpt>
      <trkpt lat="43.57956" lon="-0.37229">
        <ele>174.322</ele>
        <time>2016-09-25T16:44:02Z</time>
      </trkpt>
      <trkpt lat="43.57884" lon="-0.37328">
        <ele>170.71</ele>
        <time>2016-09-25T16:44:42Z</time>
      </trkpt>
      <trkpt lat="43.57785" lon="-0.37433">
        <ele>154.947</ele>
        <time>2016-09-25T16:45:02Z</time>
      </trkpt>
      <trkpt lat="43.57748" lon="-0.37568">
        <ele>172.237</ele>
        <time>2016-09-25T16:45:22Z</time>
      </trkpt>
      <trkpt lat="43.57625" lon="-0.37583">
        <ele>181.047</ele>
        <time>2016-09-25T16:45:42Z</time>
      </trkpt>
      <trkpt lat="43.57536" lon="-0.37625">
        <ele>190.512</ele>
        <time>2019-03-30T15:21:45Z</time>
      </trkpt>
      <trkpt lat="43.57514" lon="-0.37603">
        <ele>192.961</ele>
        <time>2019-03-30T15:22:05Z</time>
      </trkpt>
      <trkpt lat="43.57476" lon="-0.37549">
        <ele>194.158</ele>
        <time>2019-03-30T15:22:25Z</time>
      </trkpt>
      <trkpt lat="43.57455" lon="-0.37445">
        <ele>188.032</ele>
        <time>2019-03-30T15:22:45Z</time>
      </trkpt>
      <trkpt lat="43.57405" lon="-0.37293">
        <ele>190.356</ele>
        <time>2019-03-30T15:23:05Z</time>
      </trkpt>
      <trkpt lat="43.57357" lon="-0.37245">
        <ele>182.159</ele>
        <time>2019-03-30T15:23:25Z</time>
      </trkpt>
      <trkpt lat="43.5734" lon="-0.37188">
        <ele>182.614</ele>
        <time>2019-03-30T15:23:45Z</time>
      </trkpt>
      <trkpt lat="43.57279" lon="-0.37037">
        <ele>173.508</ele>
        <time>2019-03-30T15:24:05Z</time>
      </trkpt>
      <trkpt lat="43.57287" lon="-0.37155">
        <ele>162.171</ele>
        <time>2019-03-30T15:24:25Z</time>
      </trkpt>
      <trkpt lat="43.57282" lon="-0.37214">
        <ele>152.228</ele>
        <time>2019-03-30T15:24:45Z</time>
      </trkpt>
      <trkpt lat="43.57294" lon="-0.37268">
        <ele>149.888</ele>
        <time>2019-03-30T15:25:05Z</time>
      </trkpt>
      <trkpt lat="43.57286" lon="-0.37326">
        <ele>141.068</ele>
        <time>2019-03-30T15:25:25Z</time>
      </trkpt>
      <trkpt lat="43.57252" lon="-0.37401">
        <ele>124.263</ele>
        <time>2016-09-25T16:48:22Z</time>
      </trkpt>
      <trkpt lat="43.57254" lon="-0.37471">
        <ele>120.222</ele>
        <time>2019-03-30T15:26:05Z</time>
      </trkpt>
      <trkpt lat="43.57187" lon="-0.375">
        <ele>115.079</ele>
        <time>2019-03-30T15:26:25Z</time>
      </trkpt>
      <trkpt lat="43.57139" lon="-0.37504">
        <ele>114.713</ele>
        <time>2019-03-30T15:26:45Z</time>
      </trkpt>
      <trkpt lat="43.57102" lon="-0.37558">
        <ele>113.065</ele>
        <time>2019-03-30T15:27:05Z</time>
      </trkpt>
      <trkpt lat="43.57018" lon="-0.37606">
        <ele>113.068</ele>
        <time>2019-03-30T15:27:25Z</time>
      </trkpt>
      <trkpt lat="43.56928" lon="-0.37641">
        <ele>112.914</ele>
        <time>2019-03-30T15:27:45Z</time>
      </trkpt>
      <trkpt lat="43.5683" lon="-0.37749">
        <ele>110.908</ele>
        <time>2019-03-30T15:28:05Z</time>
      </trkpt>
      <trkpt lat="43.56812" lon="-0.37809">
        <ele>110.082</ele>
        <time>2019-03-30T15:28:25Z</time>
      </trkpt>
      <trkpt lat="43.56625" lon="-0.37965">
        <ele>116.519</ele>
        <time>2016-09-25T16:51:02Z</time>
      </trkpt>
      <trkpt lat="43.56524" lon="-0.37993">
        <ele>119.199</ele>
        <time>2016-09-25T16:51:22Z</time>
      </trkpt>
      <trkpt lat="43.56395" lon="-0.38088">
        <ele>125.789</ele>
        <time>2016-09-25T16:51:42Z</time>
      </trkpt>
      <trkpt lat="43.56247" lon="-0.3818">
        <ele>129.224</ele>
        <time>2016-09-25T16:52:02Z</time>
      </trkpt>
      <trkpt lat="43.56167" lon="-0.38271">
        <ele>134.763</ele>
        <time>2019-03-30T15:30:05Z</time>
      </trkpt>
      <trkpt lat="43.56079" lon="-0.38345">
        <ele>145.03</ele>
        <time>2016-09-25T16:52:42Z</time>
      </trkpt>
      <trkpt lat="43.56014" lon="-0.38386">
        <ele>152.354</ele>
        <time>2016-09-25T16:53:02Z</time>
      </trkpt>
      <trkpt lat="43.55902" lon="-0.38519">
        <ele>171.364</ele>
        <time>2016-09-25T16:53:22Z</time>
      </trkpt>
      <trkpt lat="43.55809" lon="-0.38656">
        <ele>177.906</ele>
        <time>2019-03-30T15:31:25Z</time>
      </trkpt>
      <trkpt lat="43.55831" lon="-0.38685">
        <ele>177.716</ele>
        <time>2019-03-30T15:31:45Z</time>
      </trkpt>
      <trkpt lat="43.55783" lon="-0.38847">
        <ele>179.908</ele>
        <time>2019-03-30T15:32:05Z</time>
      </trkpt>
      <trkpt lat="43.55646" lon="-0.38957">
        <ele>181.022</ele>
        <time>2016-09-25T16:54:42Z</time>
      </trkpt>
      <trkpt lat="43.5561" lon="-0.39152">
        <ele>181.029</ele>
        <time>2016-09-25T16:55:02Z</time>
      </trkpt>
      <trkpt lat="43.55551" lon="-0.3933">
        <ele>180.989</ele>
        <time>2016-09-25T16:55:22Z</time>
      </trkpt>
      <trkpt lat="43.5551" lon="-0.39356">
        <ele>179.289</ele>
        <time>2016-09-25T16:55:42Z</time>
      </trkpt>
      <trkpt lat="43.55429" lon="-0.39551">
        <ele>181.024</ele>
        <time>2016-09-25T16:56:02Z</time>
      </trkpt>
      <trkpt lat="43.55223" lon="-0.39482">
        <ele>184.033</ele>
        <time>2016-09-25T16:56:22Z</time>
      </trkpt>
      <trkpt lat="43.55183" lon="-0.39496">
        <ele>184.41</ele>
        <time>2019-03-30T15:34:25Z</time>
      </trkpt>
      <trkpt lat="43.55108" lon="-0.39607">
        <ele>185.074</ele>
        <time>2019-03-30T15:34:45Z</time>
      </trkpt>
      <trkpt lat="43.5494" lon="-0.39459">
        <ele>185.063</ele>
        <time>2016-09-25T16:57:42Z</time>
      </trkpt>
      <trkpt lat="43.54888" lon="-0.39375">
        <ele>185.044</ele>
        <time>2016-09-25T16:58:02Z</time>
      </trkpt>
      <trkpt lat="43.54555" lon="-0.39834">
        <ele>180.018</ele>
        <time>2016-09-25T16:58:22Z</time>
      </trkpt>
      <trkpt lat="43.54402" lon="-0.4008">
        <ele>185.408</ele>
        <time>2021-01-03T17:23:00Z</time>
      </trkpt>
      <trkpt lat="43.54047" lon="-0.39834">
        <ele>186.322</ele>
        <time>2021-01-03T17:23:20Z</time>
      </trkpt>
      <trkpt lat="43.53917" lon="-0.40211">
        <ele>197.149</ele>
        <time>2021-01-03T17:23:40Z</time>
      </trkpt>
      <trkpt lat="43.53768" lon="-0.40487">
        <ele>221.959</ele>
        <time>2021-01-03T17:24:00Z</time>
      </trkpt>
      <trkpt lat="43.53717" lon="-0.40487">
        <ele>226.179</ele>
        <time>2021-01-03T17:24:20Z</time>
      </trkpt>
      <trkpt lat="43.53649" lon="-0.40566">
        <ele>235.084</ele>
        <time>2021-01-03T17:24:40Z</time>
      </trkpt>
      <trkpt lat="43.53609" lon="-0.40854">
        <ele>235.013</ele>
        <time>2021-01-03T17:25:00Z</time>
      </trkpt>
      <trkpt lat="43.53625" lon="-0.40984">
        <ele>231.36</ele>
        <time>2021-01-03T17:25:20Z</time>
      </trkpt>
      <trkpt lat="43.53544" lon="-0.41175">
        <ele>235.024</ele>
        <time>2021-01-03T17:25:40Z</time>
      </trkpt>
      <trkpt lat="43.53655" lon="-0.41403">
        <ele>234.293</ele>
        <time>2021-01-03T17:26:00Z</time>
      </trkpt>
      <trkpt lat="43.53584" lon="-0.41388">
        <ele>235.065</ele>
        <time>2021-01-03T17:26:20Z</time>
      </trkpt>
      <trkpt lat="43.53506" lon="-0.41403">
        <ele>232.521</ele>
        <time>2021-01-03T17:26:40Z</time>
      </trkpt>
      <trkpt lat="43.53464" lon="-0.41462">
        <ele>230.108</ele>
        <time>2021-01-03T17:27:00Z</time>
      </trkpt>
      <trkpt lat="43.53431" lon="-0.41654">
        <ele>214.565</ele>
        <time>2021-01-03T17:27:20Z</time>
      </trkpt>
      <trkpt lat="43.53569" lon="-0.41755">
        <ele>215.612</ele>
        <time>2021-01-03T17:27:40Z</time>
      </trkpt>
      <trkpt lat="43.53555" lon="-0.41824">
        <ele>210.692</ele>
        <time>2021-01-03T17:28:00Z</time>
      </trkpt>
      <trkpt lat="43.53354" lon="-0.42007">
        <ele>209.182</ele>
        <time>2021-01-03T17:28:20Z</time>
      </trkpt>
      <trkpt lat="43.53239" lon="-0.41847">
        <ele>212.917</ele>
        <time>2021-01-03T17:28:40Z</time>
      </trkpt>
      <trkpt lat="43.53209" lon="-0.41715">
        <ele>210.976</ele>
        <time>2021-01-03T17:29:00Z</time>
      </trkpt>
      <trkpt lat="43.5318" lon="-0.41617">
        <ele>208.333</ele>
        <time>2021-01-03T17:29:20Z</time>
      </trkpt>
      <trkpt lat="43.53135" lon="-0.4166">
        <ele>225.157</ele>
        <time>2019-03-30T15:44:45Z</time>
      </trkpt>
      <trkpt lat="43.53015" lon="-0.41725">
        <ele>235.061</ele>
        <time>2019-03-30T15:45:05Z</time>
      </trkpt>
      <trkpt lat="43.52872" lon="-0.41906">
        <ele>235.021</ele>
        <time>2019-03-30T15:45:25Z</time>
      </trkpt>
      <trkpt lat="43.52732" lon="-0.42009">
        <ele>236.313</ele>
        <time>2019-03-30T15:45:45Z</time>
      </trkpt>
      <trkpt lat="43.52629" lon="-0.42553">
        <ele>227.508</ele>
        <time>2019-03-30T15:46:05Z</time>
      </trkpt>
      <trkpt lat="43.52551" lon="-0.42691">
        <ele>214.732</ele>
        <time>2019-03-30T15:46:25Z</time>
      </trkpt>
      <trkpt lat="43.52488" lon="-0.42785">
        <ele>204.789</ele>
        <time>2019-03-30T15:46:45Z</time>
      </trkpt>
      <trkpt lat="43.52437" lon="-0.42952">
        <ele>200.729</ele>
        <time>2019-03-30T15:47:05Z</time>
      </trkpt>
      <trkpt lat="43.52292" lon="-0.43227">
        <ele>173.839</ele>
        <time>2019-03-30T15:47:25Z</time>
      </trkpt>
      <trkpt lat="43.52282" lon="-0.43292">
        <ele>170.764</ele>
        <time>2019-03-30T15:47:45Z</time>
      </trkpt>
      <trkpt lat="43.52177" lon="-0.43473">
        <ele>163.113</ele>
        <time>2019-03-30T15:48:05Z</time>
      </trkpt>
      <trkpt lat="43.52099" lon="-0.43572">
        <ele>147.94</ele>
        <time>2019-03-30T15:48:25Z</time>
      </trkpt>
      <trkpt lat="43.51967" lon="-0.43708">
        <ele>128.394</ele>
        <time>2019-03-30T15:48:45Z</time>
      </trkpt>
      <trkpt lat="43.51934" lon="-0.43787">
        <ele>118.342</ele>
        <time>2019-03-30T15:49:05Z</time>
      </trkpt>
      <trkpt lat="43.51861" lon="-0.43818">
        <ele>110.222</ele>
        <time>2019-03-30T15:49:25Z</time>
      </trkpt>
      <trkpt lat="43.51814" lon="-0.43809">
        <ele>107.514</ele>
        <time>2019-03-30T15:49:45Z</time>
      </trkpt>
      <trkpt lat="43.51742" lon="-0.43867">
        <ele>105.008</ele>
        <time>2019-03-30T15:50:05Z</time>
      </trkpt>
      <trkpt lat="43.51678" lon="-0.43994">
        <ele>102.01</ele>
        <time>2019-03-30T15:50:25Z</time>
      </trkpt>
      <trkpt lat="43.51661" lon="-0.44059">
        <ele>102.057</ele>
        <time>2019-03-30T15:50:45Z</time>
      </trkpt>
      <trkpt lat="43.51626" lon="-0.44113">
        <ele>102.087</ele>
        <time>2019-03-30T15:51:05Z</time>
      </trkpt>
      <trkpt lat="43.51618" lon="-0.44117">
        <ele>102.017</ele>
        <time>2016-09-25T17:14:22Z</time>
      </trkpt>
      <trkpt lat="43.51467" lon="-0.44081">
        <ele>105.072</ele>
        <time>2016-09-25T17:14:42Z</time>
      </trkpt>
      <trkpt lat="43.51431" lon="-0.441">
        <ele>105.011</ele>
        <time>2016-09-25T17:15:02Z</time>
      </trkpt>
      <trkpt lat="43.51262" lon="-0.44306">
        <ele>108.098</ele>
        <time>2016-09-25T17:15:22Z</time>
      </trkpt>
      <trkpt lat="43.51234" lon="-0.4439">
        <ele>109.052</ele>
        <time>2016-09-25T17:15:42Z</time>
      </trkpt>
      <trkpt lat="43.51167" lon="-0.44368">
        <ele>109.023</ele>
        <time>2016-09-25T17:16:02Z</time>
      </trkpt>
      <trkpt lat="43.5105" lon="-0.44437">
        <ele>114.983</ele>
        <time>2016-09-25T17:16:22Z</time>
      </trkpt>
      <trkpt lat="43.51066" lon="-0.44514">
        <ele>119.111</ele>
        <time>2016-09-25T17:16:42Z</time>
      </trkpt>
      <trkpt lat="43.51018" lon="-0.4457">
        <ele>132.208</ele>
        <time>2016-09-25T17:17:02Z</time>
      </trkpt>
      <trkpt lat="43.51013" lon="-0.44664">
        <ele>143.078</ele>
        <time>2016-09-25T17:17:22Z</time>
      </trkpt>
      <trkpt lat="43.50993" lon="-0.44795">
        <ele>155.815</ele>
        <time>2016-09-25T17:17:42Z</time>
      </trkpt>
      <trkpt lat="43.5098" lon="-0.44963">
        <ele>169.535</ele>
        <time>2016-09-25T17:18:02Z</time>
      </trkpt>
      <trkpt lat="43.50938" lon="-0.45177">
        <ele>172.555</ele>
        <time>2016-09-25T17:18:22Z</time>
      </trkpt>
      <trkpt lat="43.50888" lon="-0.45194">
        <ele>165.99</ele>
        <time>2016-09-25T17:18:42Z</time>
      </trkpt>
      <trkpt lat="43.50793" lon="-0.45164">
        <ele>160.129</ele>
        <time>2016-09-25T17:19:02Z</time>
      </trkpt>
      <trkpt lat="43.50719" lon="-0.45269">
        <ele>159.766</ele>
        <time>2016-09-25T17:19:22Z</time>
      </trkpt>
      <trkpt lat="43.50632" lon="-0.45267">
        <ele>150.33</ele>
        <time>2016-09-25T17:19:42Z</time>
      </trkpt>
      <trkpt lat="43.50588" lon="-0.45147">
        <ele>145.944</ele>
        <time>2016-09-25T17:20:02Z</time>
      </trkpt>
      <trkpt lat="43.50502" lon="-0.44999">
        <ele>157.505</ele>
        <time>2016-09-25T17:20:22Z</time>
      </trkpt>
      <trkpt lat="43.50379" lon="-0.45059">
        <ele>173.315</ele>
        <time>2016-09-25T17:20:42Z</time>
      </trkpt>
      <trkpt lat="43.50295" lon="-0.45057">
        <ele>177.408</ele>
        <time>2016-09-25T17:21:02Z</time>
      </trkpt>
      <trkpt lat="43.50221" lon="-0.45061">
        <ele>188.93</ele>
        <time>2016-09-25T17:21:22Z</time>
      </trkpt>
      <trkpt lat="43.50163" lon="-0.45038">
        <ele>198.577</ele>
        <time>2016-09-25T17:21:42Z</time>
      </trkpt>
      <trkpt lat="43.50092" lon="-0.44922">
        <ele>198.927</ele>
        <time>2016-09-25T17:22:02Z</time>
      </trkpt>
      <trkpt lat="43.49972" lon="-0.44885">
        <ele>203.557</ele>
        <time>2016-09-25T17:22:22Z</time>
      </trkpt>
      <trkpt lat="43.49891" lon="-0.44763">
        <ele>199.192</ele>
        <time>2016-09-25T17:22:42Z</time>
      </trkpt>
      <trkpt lat="43.49852" lon="-0.44772">
        <ele>201.341</ele>
        <time>2016-09-25T17:23:02Z</time>
      </trkpt>
      <trkpt lat="43.4981" lon="-0.44799">
        <ele>205.858</ele>
        <time>2016-09-25T17:23:22Z</time>
      </trkpt>
      <trkpt lat="43.49751" lon="-0.44767">
        <ele>212.992</ele>
        <time>2016-09-25T17:23:42Z</time>
      </trkpt>
      <trkpt lat="43.49729" lon="-0.44701">
        <ele>220.387</ele>
        <time>2016-09-25T17:24:02Z</time>
      </trkpt>
      <trkpt lat="43.49721" lon="-0.44619">
        <ele>224.042</ele>
        <time>2016-09-25T17:24:22Z</time>
      </trkpt>
      <trkpt lat="43.49673" lon="-0.44572">
        <ele>226.026</ele>
        <time>2016-09-25T17:24:42Z</time>
      </trkpt>
      <trkpt lat="43.49514" lon="-0.44392">
        <ele>226.808</ele>
        <time>2016-09-25T17:25:02Z</time>
      </trkpt>
      <trkpt lat="43.49425" lon="-0.44353">
        <ele>215.854</ele>
        <time>2016-09-25T17:25:22Z</time>
      </trkpt>
      <trkpt lat="43.4938" lon="-0.44284">
        <ele>209.791</ele>
        <time>2016-09-25T17:25:42Z</time>
      </trkpt>
      <trkpt lat="43.49293" lon="-0.44257">
        <ele>203.961</ele>
        <time>2016-09-25T17:26:02Z</time>
      </trkpt>
      <trkpt lat="43.49232" lon="-0.44261">
        <ele>207.761</ele>
        <time>2016-09-25T17:26:22Z</time>
      </trkpt>
      <trkpt lat="43.49007" lon="-0.43971">
        <ele>225.016</ele>
        <time>2016-09-25T17:26:42Z</time>
      </trkpt>
      <trkpt lat="43.48927" lon="-0.4381">
        <ele>231.035</ele>
        <time>2016-09-25T17:27:02Z</time>
      </trkpt>
      <trkpt lat="43.48926" lon="-0.43752">
        <ele>232.452</ele>
        <time>2016-09-25T17:27:22Z</time>
      </trkpt>
      <trkpt lat="43.48901" lon="-0.43619">
        <ele>234.656</ele>
        <time>2016-09-25T17:27:42Z</time>
      </trkpt>
      <trkpt lat="43.4884" lon="-0.43686">
        <ele>230.713</ele>
        <time>2016-09-25T17:28:02Z</time>
      </trkpt>
      <trkpt lat="43.48814" lon="-0.43789">
        <ele>218.343</ele>
        <time>2016-09-25T17:28:22Z</time>
      </trkpt>
      <trkpt lat="43.4881" lon="-0.43986">
        <ele>201.707</ele>
        <time>2016-09-25T17:28:42Z</time>
      </trkpt>
      <trkpt lat="43.48809" lon="-0.44095">
        <ele>184.808</ele>
        <time>2019-03-30T16:06:05Z</time>
      </trkpt>
      <trkpt lat="43.48776" lon="-0.44151">
        <ele>188.477</ele>
        <time>2016-09-25T17:29:22Z</time>
      </trkpt>
      <trkpt lat="43.48806" lon="-0.44246">
        <ele>189.194</ele>
        <time>2016-09-25T17:29:42Z</time>
      </trkpt>
      <trkpt lat="43.48759" lon="-0.44212">
        <ele>200.584</ele>
        <time>2016-09-25T17:30:02Z</time>
      </trkpt>
      <trkpt lat="43.48725" lon="-0.44254">
        <ele>207.254</ele>
        <time>2016-09-25T17:30:22Z</time>
      </trkpt>
      <trkpt lat="43.48658" lon="-0.44276">
        <ele>223.019</ele>
        <time>2016-09-25T17:30:42Z</time>
      </trkpt>
      <trkpt lat="43.48653" lon="-0.44342">
        <ele>233.488</ele>
        <time>2016-09-25T17:31:02Z</time>
      </trkpt>
      <trkpt lat="43.4861" lon="-0.4446">
        <ele>240.075</ele>
        <time>2016-09-25T17:31:22Z</time>
      </trkpt>
      <trkpt lat="43.48608" lon="-0.44561">
        <ele>240.089</ele>
        <time>2016-09-25T17:31:42Z</time>
      </trkpt>
      <trkpt lat="43.48566" lon="-0.44677">
        <ele>240.636</ele>
        <time>2016-09-25T17:32:02Z</time>
      </trkpt>
      <trkpt lat="43.48533" lon="-0.44799">
        <ele>245.017</ele>
        <time>2016-09-25T17:32:22Z</time>
      </trkpt>
      <trkpt lat="43.4851" lon="-0.44862">
        <ele>245.018</ele>
        <time>2016-09-25T17:32:42Z</time>
      </trkpt>
      <trkpt lat="43.48466" lon="-0.44821">
        <ele>245.008</ele>
        <time>2016-09-25T17:33:02Z</time>
      </trkpt>
      <trkpt lat="43.48384" lon="-0.4481">
        <ele>245.039</ele>
        <time>2016-09-25T17:33:22Z</time>
      </trkpt>
      <trkpt lat="43.48359" lon="-0.44909">
        <ele>241.866</ele>
        <time>2016-09-25T17:33:42Z</time>
      </trkpt>
      <trkpt lat="43.48378" lon="-0.45278">
        <ele>220.846</ele>
        <time>2016-09-25T17:34:02Z</time>
      </trkpt>
      <trkpt lat="43.48345" lon="-0.45538">
        <ele>212.066</ele>
        <time>2016-09-25T17:34:22Z</time>
      </trkpt>
      <trkpt lat="43.48346" lon="-0.45619">
        <ele>209.241</ele>
        <time>2016-09-25T17:34:42Z</time>
      </trkpt>
      <trkpt lat="43.48314" lon="-0.45802">
        <ele>206.25</ele>
        <time>2016-09-25T17:35:02Z</time>
      </trkpt>
      <trkpt lat="43.48297" lon="-0.45971">
        <ele>206.417</ele>
        <time>2016-09-25T17:35:22Z</time>
      </trkpt>
      <trkpt lat="43.48262" lon="-0.46014">
        <ele>207.491</ele>
        <time>2016-09-25T17:35:42Z</time>
      </trkpt>
      <trkpt lat="43.48216" lon="-0.46156">
        <ele>202.984</ele>
        <time>2016-09-25T17:36:02Z</time>
      </trkpt>
      <trkpt lat="43.48231" lon="-0.46226">
        <ele>201.907</ele>
        <time>2016-09-25T17:36:22Z</time>
      </trkpt>
      <trkpt lat="43.48223" lon="-0.46317">
        <ele>204.917</ele>
        <time>2016-09-25T17:36:42Z</time>
      </trkpt>
      <trkpt lat="43.48231" lon="-0.46394">
        <ele>205.008</ele>
        <time>2016-09-25T17:37:02Z</time>
      </trkpt>
      <trkpt lat="43.48214" lon="-0.46542">
        <ele>193.364</ele>
        <time>2016-09-25T17:37:22Z</time>
      </trkpt>
      <trkpt lat="43.48113" lon="-0.46632">
        <ele>180.871</ele>
        <time>2016-09-25T17:37:42Z</time>
      </trkpt>
      <trkpt lat="43.48052" lon="-0.46733">
        <ele>174.041</ele>
        <time>2016-09-25T17:38:02Z</time>
      </trkpt>
      <trkpt lat="43.48074" lon="-0.46889">
        <ele>161.341</ele>
        <time>2016-09-25T17:38:22Z</time>
      </trkpt>
      <trkpt lat="43.48063" lon="-0.47061">
        <ele>141.756</ele>
        <time>2016-09-25T17:38:42Z</time>
      </trkpt>
      <trkpt lat="43.47928" lon="-0.47355">
        <ele>126.015</ele>
        <time>2016-09-25T17:39:02Z</time>
      </trkpt>
      <trkpt lat="43.47906" lon="-0.47434">
        <ele>124.022</ele>
        <time>2016-09-25T17:39:22Z</time>
      </trkpt>
      <trkpt lat="43.47795" lon="-0.47544">
        <ele>121.396</ele>
        <time>2016-09-25T17:39:42Z</time>
      </trkpt>
      <trkpt lat="43.47523" lon="-0.47683">
        <ele>115.012</ele>
        <time>2016-09-25T17:40:02Z</time>
      </trkpt>
      <trkpt lat="43.47478" lon="-0.47851">
        <ele>113.032</ele>
        <time>2016-09-25T17:40:22Z</time>
      </trkpt>
      <trkpt lat="43.47412" lon="-0.47999">
        <ele>111.005</ele>
        <time>2016-09-25T17:40:42Z</time>
      </trkpt>
      <trkpt lat="43.47331" lon="-0.47973">
        <ele>110.908</ele>
        <time>2016-09-25T17:41:02Z</time>
      </trkpt>
      <trkpt lat="43.47208" lon="-0.47988">
        <ele>110.077</ele>
        <time>2016-09-25T17:41:22Z</time>
      </trkpt>
      <trkpt lat="43.47107" lon="-0.47947">
        <ele>110.334</ele>
        <time>2016-09-25T17:41:42Z</time>
      </trkpt>
      <trkpt lat="43.47087" lon="-0.47969">
        <ele>111.034</ele>
        <time>2016-09-25T17:42:02Z</time>
      </trkpt>
      <trkpt lat="43.47084" lon="-0.48014">
        <ele>113.094</ele>
        <time>2016-09-25T17:42:22Z</time>
      </trkpt>
      <trkpt lat="43.47" lon="-0.48025">
        <ele>122.729</ele>
        <time>2016-09-25T17:42:42Z</time>
      </trkpt>
      <trkpt lat="43.46973" lon="-0.4801">
        <ele>123.678</ele>
        <time>2016-09-25T17:43:02Z</time>
      </trkpt>
      <trkpt lat="43.46911" lon="-0.48016">
        <ele>132.295</ele>
        <time>2016-09-25T17:43:22Z</time>
      </trkpt>
      <trkpt lat="43.46889" lon="-0.48044">
        <ele>138.149</ele>
        <time>2016-09-25T17:43:42Z</time>
      </trkpt>
      <trkpt lat="43.46803" lon="-0.48078">
        <ele>140.078</ele>
        <time>2016-09-25T17:44:02Z</time>
      </trkpt>
      <trkpt lat="43.46719" lon="-0.48145">
        <ele>140.033</ele>
        <time>2016-09-25T17:44:22Z</time>
      </trkpt>
      <trkpt lat="43.46905" lon="-0.48477">
        <ele>140.026</ele>
        <time>2016-09-25T17:44:42Z</time>
      </trkpt>
      <trkpt lat="43.46912" lon="-0.48537">
        <ele>140.008</ele>
        <time>2016-09-25T17:45:02Z</time>
      </trkpt>
      <trkpt lat="43.46962" lon="-0.48604">
        <ele>140.063</ele>
        <time>2016-09-25T17:45:22Z</time>
      </trkpt>
      <trkpt lat="43.47043" lon="-0.4858">
        <ele>140.05</ele>
        <time>2016-09-25T17:45:42Z</time>
      </trkpt>
      <trkpt lat="43.47124" lon="-0.48664">
        <ele>140.09</ele>
        <time>2016-09-25T17:46:02Z</time>
      </trkpt>
      <trkpt lat="43.47202" lon="-0.48726">
        <ele>140.05</ele>
        <time>2016-09-25T17:46:22Z</time>
      </trkpt>
      <trkpt lat="43.47353" lon="-0.48962">
        <ele>137.155</ele>
        <time>2016-09-25T17:46:42Z</time>
      </trkpt>
      <trkpt lat="43.47464" lon="-0.49082">
        <ele>135.064</ele>
        <time>2016-09-25T17:47:02Z</time>
      </trkpt>
      <trkpt lat="43.4752" lon="-0.49134">
        <ele>134.861</ele>
        <time>2016-09-25T17:47:22Z</time>
      </trkpt>
      <trkpt lat="43.47663" lon="-0.49359">
        <ele>122.725</ele>
        <time>2016-09-25T17:47:42Z</time>
      </trkpt>
      <trkpt lat="43.47677" lon="-0.49469">
        <ele>116.492</ele>
        <time>2016-09-25T17:48:02Z</time>
      </trkpt>
      <trkpt lat="43.47753" lon="-0.49582">
        <ele>109.073</ele>
        <time>2016-09-25T17:48:22Z</time>
      </trkpt>
      <trkpt lat="43.4783" lon="-0.49748">
        <ele>109.02</ele>
        <time>2016-09-25T17:48:42Z</time>
      </trkpt>
      <trkpt lat="43.47836" lon="-0.49818">
        <ele>109.008</ele>
        <time>2016-09-25T17:49:02Z</time>
      </trkpt>
      <trkpt lat="43.4783" lon="-0.49879">
        <ele>110.155</ele>
        <time>2016-09-25T17:49:22Z</time>
      </trkpt>
      <trkpt lat="43.47872" lon="-0.49924">
        <ele>109.792</ele>
        <time>2016-09-25T17:49:42Z</time>
      </trkpt>
      <trkpt lat="43.47898" lon="-0.49994">
        <ele>111.812</ele>
        <time>2016-09-25T17:50:02Z</time>
      </trkpt>
      <trkpt lat="43.47887" lon="-0.50093">
        <ele>115.842</ele>
        <time>2016-09-25T17:50:22Z</time>
      </trkpt>
      <trkpt lat="43.47865" lon="-0.50168">
        <ele>122.927</ele>
        <time>2016-09-25T17:50:42Z</time>
      </trkpt>
      <trkpt lat="43.47912" lon="-0.50245">
        <ele>127.756</ele>
        <time>2016-09-25T17:51:02Z</time>
      </trkpt>
      <trkpt lat="43.47928" lon="-0.5031">
        <ele>131.873</ele>
        <time>2016-09-25T17:51:22Z</time>
      </trkpt>
      <trkpt lat="43.48024" lon="-0.50342">
        <ele>131.457</ele>
        <time>2016-09-25T17:51:42Z</time>
      </trkpt>
      <trkpt lat="43.48021" lon="-0.50396">
        <ele>133.024</ele>
        <time>2016-09-25T17:52:02Z</time>
      </trkpt>
      <trkpt lat="43.47976" lon="-0.50496">
        <ele>132.904</ele>
        <time>2016-09-25T17:52:22Z</time>
      </trkpt>
      <trkpt lat="43.47988" lon="-0.50638">
        <ele>134.614</ele>
        <time>2016-09-25T17:52:42Z</time>
      </trkpt>
      <trkpt lat="43.47886" lon="-0.50756">
        <ele>135.008</ele>
        <time>2016-09-25T17:53:02Z</time>
      </trkpt>
      <trkpt lat="43.48018" lon="-0.51106">
        <ele>134.018</ele>
        <time>2016-09-25T17:53:22Z</time>
      </trkpt>
      <trkpt lat="43.4802" lon="-0.51157">
        <ele>134.325</ele>
        <time>2016-09-25T17:53:42Z</time>
      </trkpt>
      <trkpt lat="43.4804" lon="-0.51213">
        <ele>133.635</ele>
        <time>2016-09-25T17:54:02Z</time>
      </trkpt>
      <trkpt lat="43.4827" lon="-0.51438">
        <ele>130.075</ele>
        <time>2016-09-25T17:54:22Z</time>
      </trkpt>
      <trkpt lat="43.48368" lon="-0.5152">
        <ele>130.04</ele>
        <time>2016-09-25T17:54:42Z</time>
      </trkpt>
      <trkpt lat="43.48191" lon="-0.51778">
        <ele>117.079</ele>
        <time>2016-09-25T17:55:02Z</time>
      </trkpt>
      <trkpt lat="43.48111" lon="-0.51962">
        <ele>115.686</ele>
        <time>2016-09-25T17:55:22Z</time>
      </trkpt>
      <trkpt lat="43.4806" lon="-0.51986">
        <ele>118.43</ele>
        <time>2016-09-25T17:55:42Z</time>
      </trkpt>
      <trkpt lat="43.4801" lon="-0.51975">
        <ele>118.287</ele>
        <time>2016-09-25T17:56:02Z</time>
      </trkpt>
      <trkpt lat="43.47984" lon="-0.52007">
        <ele>124.842</ele>
        <time>2016-09-25T17:56:22Z</time>
      </trkpt>
      <trkpt lat="43.47987" lon="-0.52093">
        <ele>130.226</ele>
        <time>2016-09-25T17:56:42Z</time>
      </trkpt>
      <trkpt lat="43.47982" lon="-0.52181">
        <ele>131.808</ele>
        <time>2016-09-25T17:57:02Z</time>
      </trkpt>
      <trkpt lat="43.48202" lon="-0.52112">
        <ele>130.014</ele>
        <time>2016-09-25T17:57:22Z</time>
      </trkpt>
      <trkpt lat="43.48259" lon="-0.52134">
        <ele>130.891</ele>
        <time>2016-09-25T17:57:42Z</time>
      </trkpt>
      <trkpt lat="43.48294" lon="-0.5225">
        <ele>131.021</ele>
        <time>2016-09-25T17:58:22Z</time>
      </trkpt>
      <trkpt lat="43.48304" lon="-0.52316">
        <ele>132.066</ele>
        <time>2016-09-25T17:58:42Z</time>
      </trkpt>
      <trkpt lat="43.48345" lon="-0.52393">
        <ele>132.065</ele>
        <time>2016-09-25T17:59:02Z</time>
      </trkpt>
      <trkpt lat="43.48606" lon="-0.52728">
        <ele>130.882</ele>
        <time>2016-09-25T17:59:22Z</time>
      </trkpt>
      <trkpt lat="43.48647" lon="-0.52829">
        <ele>130.056</ele>
        <time>2016-09-25T17:59:42Z</time>
      </trkpt>
      <trkpt lat="43.48748" lon="-0.5299">
        <ele>130.093</ele>
        <time>2016-09-25T18:00:02Z</time>
      </trkpt>
      <trkpt lat="43.48782" lon="-0.53099">
        <ele>130.065</ele>
        <time>2016-09-25T18:00:22Z</time>
      </trkpt>
      <trkpt lat="43.48829" lon="-0.53479">
        <ele>129.421</ele>
        <time>2016-09-25T18:00:42Z</time>
      </trkpt>
      <trkpt lat="43.48814" lon="-0.53511">
        <ele>130.008</ele>
        <time>2016-09-25T18:01:02Z</time>
      </trkpt>
      <trkpt lat="43.4887" lon="-0.53767">
        <ele>130.065</ele>
        <time>2016-09-25T18:01:22Z</time>
      </trkpt>
      <trkpt lat="43.48776" lon="-0.53831">
        <ele>130.012</ele>
        <time>2019-03-30T16:38:45Z</time>
      </trkpt>
      <trkpt lat="43.48883" lon="-0.54046">
        <ele>130.052</ele>
        <time>2019-03-30T16:39:05Z</time>
      </trkpt>
      <trkpt lat="43.4894" lon="-0.54198">
        <ele>129.842</ele>
        <time>2016-09-25T18:02:22Z</time>
      </trkpt>
      <trkpt lat="43.48814" lon="-0.54449">
        <ele>125.037</ele>
        <time>2016-09-25T18:02:42Z</time>
      </trkpt>
      <trkpt lat="43.48709" lon="-0.54397">
        <ele>128.066</ele>
        <time>2016-09-25T18:03:02Z</time>
      </trkpt>
      <trkpt lat="43.48613" lon="-0.54496">
        <ele>130.093</ele>
        <time>2016-09-25T18:03:22Z</time>
      </trkpt>
      <trkpt lat="43.48375" lon="-0.54527">
        <ele>133.557</ele>
        <time>2019-03-30T16:40:45Z</time>
      </trkpt>
      <trkpt lat="43.48085" lon="-0.54985">
        <ele>134.422</ele>
        <time>2016-09-25T18:04:02Z</time>
      </trkpt>
      <trkpt lat="43.47897" lon="-0.55144">
        <ele>133.862</ele>
        <time>2016-09-25T18:04:22Z</time>
      </trkpt>
      <trkpt lat="43.47826" lon="-0.55221">
        <ele>133.008</ele>
        <time>2016-09-25T18:04:42Z</time>
      </trkpt>
      <trkpt lat="43.47789" lon="-0.55247">
        <ele>133.008</ele>
        <time>2016-09-25T18:05:02Z</time>
      </trkpt>
      <trkpt lat="43.47699" lon="-0.555">
        <ele>133.018</ele>
        <time>2016-09-25T18:05:22Z</time>
      </trkpt>
      <trkpt lat="43.47582" lon="-0.5596">
        <ele>132.015</ele>
        <time>2016-09-25T18:05:42Z</time>
      </trkpt>
      <trkpt lat="43.47541" lon="-0.56114">
        <ele>131.085</ele>
        <time>2016-09-25T18:06:02Z</time>
      </trkpt>
      <trkpt lat="43.47515" lon="-0.5629">
        <ele>130.085</ele>
        <time>2016-09-25T18:06:22Z</time>
      </trkpt>
      <trkpt lat="43.47521" lon="-0.56365">
        <ele>130.09</ele>
        <time>2016-09-25T18:06:42Z</time>
      </trkpt>
      <trkpt lat="43.47545" lon="-0.5641">
        <ele>130.039</ele>
        <time>2016-09-25T18:07:02Z</time>
      </trkpt>
      <trkpt lat="43.47489" lon="-0.56557">
        <ele>130.066</ele>
        <time>2019-03-30T16:44:25Z</time>
      </trkpt>
      <trkpt lat="43.47452" lon="-0.56585">
        <ele>130.07</ele>
        <time>2019-03-30T16:44:45Z</time>
      </trkpt>
      <trkpt lat="43.47378" lon="-0.56541">
        <ele>130.065</ele>
        <time>2019-03-30T16:45:05Z</time>
      </trkpt>
      <trkpt lat="43.47271" lon="-0.56529">
        <ele>130.068</ele>
        <time>2019-03-30T16:45:25Z</time>
      </trkpt>
      <trkpt lat="43.47214" lon="-0.56582">
        <ele>131.014</ele>
        <time>2016-09-25T18:08:42Z</time>
      </trkpt>
      <trkpt lat="43.4716" lon="-0.56526">
        <ele>131.008</ele>
        <time>2016-09-25T18:09:02Z</time>
      </trkpt>
      <trkpt lat="43.46987" lon="-0.56766">
        <ele>135.372</ele>
        <time>2016-09-25T18:09:22Z</time>
      </trkpt>
      <trkpt lat="43.46933" lon="-0.56867">
        <ele>138.659</ele>
        <time>2016-09-25T18:09:42Z</time>
      </trkpt>
      <trkpt lat="43.46777" lon="-0.57056">
        <ele>153.129</ele>
        <time>2016-09-25T18:10:02Z</time>
      </trkpt>
      <trkpt lat="43.46697" lon="-0.57105">
        <ele>162.139</ele>
        <time>2016-09-25T18:10:22Z</time>
      </trkpt>
      <trkpt lat="43.4666" lon="-0.57174">
        <ele>171.244</ele>
        <time>2016-09-25T18:10:42Z</time>
      </trkpt>
      <trkpt lat="43.46662" lon="-0.57219">
        <ele>178.233</ele>
        <time>2016-09-25T18:11:02Z</time>
      </trkpt>
      <trkpt lat="43.46694" lon="-0.57286">
        <ele>188.13</ele>
        <time>2016-09-25T18:11:22Z</time>
      </trkpt>
      <trkpt lat="43.46696" lon="-0.57434">
        <ele>198.474</ele>
        <time>2016-09-25T18:11:42Z</time>
      </trkpt>
      <trkpt lat="43.46641" lon="-0.57466">
        <ele>199.883</ele>
        <time>2016-09-25T18:12:02Z</time>
      </trkpt>
      <trkpt lat="43.46624" lon="-0.5755">
        <ele>201.025</ele>
        <time>2016-09-25T18:12:22Z</time>
      </trkpt>
      <trkpt lat="43.46532" lon="-0.57612">
        <ele>200.017</ele>
        <time>2016-09-25T18:12:42Z</time>
      </trkpt>
      <trkpt lat="43.46478" lon="-0.57683">
        <ele>199.908</ele>
        <time>2016-09-25T18:13:02Z</time>
      </trkpt>
      <trkpt lat="43.46478" lon="-0.57756">
        <ele>198.894</ele>
        <time>2016-09-25T18:13:22Z</time>
      </trkpt>
      <trkpt lat="43.46441" lon="-0.57932">
        <ele>194.521</ele>
        <time>2016-09-25T18:13:42Z</time>
      </trkpt>
      <trkpt lat="43.46444" lon="-0.5802">
        <ele>189.761</ele>
        <time>2016-09-25T18:14:02Z</time>
      </trkpt>
      <trkpt lat="43.4642" lon="-0.5815">
        <ele>176.651</ele>
        <time>2016-09-25T18:14:22Z</time>
      </trkpt>
      <trkpt lat="43.46402" lon="-0.58322">
        <ele>157.826</ele>
        <time>2016-09-25T18:14:42Z</time>
      </trkpt>
      <trkpt lat="43.46282" lon="-0.58421">
        <ele>139.075</ele>
        <time>2016-09-25T18:15:02Z</time>
      </trkpt>
      <trkpt lat="43.46236" lon="-0.58543">
        <ele>135.452</ele>
        <time>2016-09-25T18:15:22Z</time>
      </trkpt>
      <trkpt lat="43.46249" lon="-0.58938">
        <ele>134.086</ele>
        <time>2016-09-25T18:15:42Z</time>
      </trkpt>
      <trkpt lat="43.46157" lon="-0.59112">
        <ele>136.477</ele>
        <time>2016-09-25T18:16:02Z</time>
      </trkpt>
      <trkpt lat="43.4616" lon="-0.59337">
        <ele>142.161</ele>
        <time>2016-09-25T18:16:22Z</time>
      </trkpt>
      <trkpt lat="43.46129" lon="-0.59616">
        <ele>155.327</ele>
        <time>2016-09-25T18:16:42Z</time>
      </trkpt>
      <trkpt lat="43.46062" lon="-0.59633">
        <ele>153.108</ele>
        <time>2016-09-25T18:17:02Z</time>
      </trkpt>
      <trkpt lat="43.46031" lon="-0.59794">
        <ele>160.523</ele>
        <time>2016-09-25T18:17:22Z</time>
      </trkpt>
      <trkpt lat="43.45933" lon="-0.59676">
        <ele>167.47</ele>
        <time>2016-09-25T18:17:42Z</time>
      </trkpt>
      <trkpt lat="43.45866" lon="-0.59661">
        <ele>170.98</ele>
        <time>2016-09-25T18:18:02Z</time>
      </trkpt>
      <trkpt lat="43.45807" lon="-0.59663">
        <ele>172.76</ele>
        <time>2016-09-25T18:18:22Z</time>
      </trkpt>
      <trkpt lat="43.45765" lon="-0.59693">
        <ele>172.965</ele>
        <time>2016-09-25T18:18:42Z</time>
      </trkpt>
      <trkpt lat="43.45724" lon="-0.59698">
        <ele>172.224</ele>
        <time>2016-09-25T18:19:02Z</time>
      </trkpt>
      <trkpt lat="43.45587" lon="-0.59775">
        <ele>170.511</ele>
        <time>2016-09-25T18:19:22Z</time>
      </trkpt>
      <trkpt lat="43.45514" lon="-0.59749">
        <ele>167.435</ele>
        <time>2016-09-25T18:19:42Z</time>
      </trkpt>
      <trkpt lat="43.45466" lon="-0.59769">
        <ele>174.297</ele>
        <time>2019-03-30T16:57:05Z</time>
      </trkpt>
      <trkpt lat="43.45548" lon="-0.59901">
        <ele>182.023</ele>
        <time>2016-09-25T18:20:22Z</time>
      </trkpt>
      <trkpt lat="43.45635" lon="-0.59976">
        <ele>187.625</ele>
        <time>2016-09-25T18:20:42Z</time>
      </trkpt>
      <trkpt lat="43.45708" lon="-0.59923">
        <ele>192.608</ele>
        <time>2016-09-25T18:21:02Z</time>
      </trkpt>
      <trkpt lat="43.45819" lon="-0.59934">
        <ele>198.015</ele>
        <time>2016-09-25T18:21:22Z</time>
      </trkpt>
      <trkpt lat="43.45833" lon="-0.60049">
        <ele>204.662</ele>
        <time>2016-09-25T18:21:42Z</time>
      </trkpt>
      <trkpt lat="43.45872" lon="-0.60112">
        <ele>205.042</ele>
        <time>2016-09-25T18:22:02Z</time>
      </trkpt>
      <trkpt lat="43.45937" lon="-0.60127">
        <ele>204.632</ele>
        <time>2019-03-30T16:59:25Z</time>
      </trkpt>
      <trkpt lat="43.46032" lon="-0.60135">
        <ele>203.867</ele>
        <time>2019-03-30T16:59:45Z</time>
      </trkpt>
      <trkpt lat="43.46146" lon="-0.60127">
        <ele>204.716</ele>
        <time>2016-09-25T18:22:42Z</time>
      </trkpt>
      <trkpt lat="43.46254" lon="-0.60191">
        <ele>208.163</ele>
        <time>2016-09-25T18:23:02Z</time>
      </trkpt>
      <trkpt lat="43.46335" lon="-0.60277">
        <ele>209.977</ele>
        <time>2016-09-25T18:23:22Z</time>
      </trkpt>
      <trkpt lat="43.46422" lon="-0.60434">
        <ele>210.074</ele>
        <time>2016-09-25T18:23:42Z</time>
      </trkpt>
      <trkpt lat="43.46483" lon="-0.60618">
        <ele>210.056</ele>
        <time>2016-09-25T18:24:02Z</time>
      </trkpt>
      <trkpt lat="43.4649" lon="-0.60728">
        <ele>210.321</ele>
        <time>2016-09-25T18:24:22Z</time>
      </trkpt>
      <trkpt lat="43.46486" lon="-0.60826">
        <ele>208.308</ele>
        <time>2016-09-25T18:24:42Z</time>
      </trkpt>
      <trkpt lat="43.46433" lon="-0.60968">
        <ele>210.053</ele>
        <time>2016-09-25T18:25:02Z</time>
      </trkpt>
      <trkpt lat="43.46417" lon="-0.61137">
        <ele>210.02</ele>
        <time>2016-09-25T18:25:22Z</time>
      </trkpt>
      <trkpt lat="43.4645" lon="-0.61414">
        <ele>209.21</ele>
        <time>2016-09-25T18:25:42Z</time>
      </trkpt>
      <trkpt lat="43.46501" lon="-0.61509">
        <ele>205.24</ele>
        <time>2016-09-25T18:26:02Z</time>
      </trkpt>
      <trkpt lat="43.46472" lon="-0.61588">
        <ele>202.935</ele>
        <time>2016-09-25T18:26:22Z</time>
      </trkpt>
      <trkpt lat="43.4647" lon="-0.61715">
        <ele>199.244</ele>
        <time>2016-09-25T18:26:42Z</time>
      </trkpt>
      <trkpt lat="43.46487" lon="-0.6191">
        <ele>200.951</ele>
        <time>2016-09-25T18:27:02Z</time>
      </trkpt>
      <trkpt lat="43.46472" lon="-0.6224">
        <ele>215.085</ele>
        <time>2016-09-25T18:27:22Z</time>
      </trkpt>
      <trkpt lat="43.46526" lon="-0.62545">
        <ele>221.563</ele>
        <time>2016-09-25T18:27:42Z</time>
      </trkpt>
      <trkpt lat="43.465" lon="-0.62796">
        <ele>224.344</ele>
        <time>2016-09-25T18:28:02Z</time>
      </trkpt>
      <trkpt lat="43.46523" lon="-0.62944">
        <ele>222.818</ele>
        <time>2016-09-25T18:28:22Z</time>
      </trkpt>
      <trkpt lat="43.46613" lon="-0.63111">
        <ele>227.108</ele>
        <time>2016-09-25T18:28:42Z</time>
      </trkpt>
      <trkpt lat="43.46693" lon="-0.63199">
        <ele>229.522</ele>
        <time>2016-09-25T18:29:02Z</time>
      </trkpt>
      <trkpt lat="43.46736" lon="-0.63225">
        <ele>228.759</ele>
        <time>2016-09-25T18:29:22Z</time>
      </trkpt>
      <trkpt lat="43.46964" lon="-0.63511">
        <ele>219.989</ele>
        <time>2016-09-25T18:29:42Z</time>
      </trkpt>
      <trkpt lat="43.47045" lon="-0.63674">
        <ele>219.949</ele>
        <time>2016-09-25T18:30:02Z</time>
      </trkpt>
      <trkpt lat="43.47112" lon="-0.63927">
        <ele>219.954</ele>
        <time>2016-09-25T18:30:22Z</time>
      </trkpt>
      <trkpt lat="43.47233" lon="-0.64139">
        <ele>214.293</ele>
        <time>2016-09-25T18:30:42Z</time>
      </trkpt>
      <trkpt lat="43.47257" lon="-0.64253">
        <ele>214.13</ele>
        <time>2016-09-25T18:31:02Z</time>
      </trkpt>
      <trkpt lat="43.47222" lon="-0.64463">
        <ele>216.754</ele>
        <time>2016-09-25T18:31:22Z</time>
      </trkpt>
      <trkpt lat="43.47235" lon="-0.64549">
        <ele>216.686</ele>
        <time>2016-09-25T18:31:42Z</time>
      </trkpt>
      <trkpt lat="43.47302" lon="-0.64637">
        <ele>215.06</ele>
        <time>2016-09-25T18:32:02Z</time>
      </trkpt>
      <trkpt lat="43.47325" lon="-0.64706">
        <ele>213.026</ele>
        <time>2016-09-25T18:32:22Z</time>
      </trkpt>
      <trkpt lat="43.47411" lon="-0.64884">
        <ele>203.108</ele>
        <time>2016-09-25T18:32:42Z</time>
      </trkpt>
      <trkpt lat="43.47453" lon="-0.65122">
        <ele>204.914</ele>
        <time>2016-09-25T18:33:02Z</time>
      </trkpt>
      <trkpt lat="43.47602" lon="-0.65251">
        <ele>196.941</ele>
        <time>2016-09-25T18:33:22Z</time>
      </trkpt>
      <trkpt lat="43.47657" lon="-0.65334">
        <ele>194.691</ele>
        <time>2016-09-25T18:33:42Z</time>
      </trkpt>
      <trkpt lat="43.47694" lon="-0.65429">
        <ele>193.541</ele>
        <time>2016-09-25T18:34:02Z</time>
      </trkpt>
      <trkpt lat="43.47696" lon="-0.65631">
        <ele>183.116</ele>
        <time>2016-09-25T18:34:22Z</time>
      </trkpt>
      <trkpt lat="43.47689" lon="-0.65712">
        <ele>182.665</ele>
        <time>2016-09-25T18:34:42Z</time>
      </trkpt>
      <trkpt lat="43.47719" lon="-0.65918">
        <ele>186.192</ele>
        <time>2016-09-25T18:35:02Z</time>
      </trkpt>
      <trkpt lat="43.47688" lon="-0.66234">
        <ele>188.696</ele>
        <time>2016-09-25T18:35:22Z</time>
      </trkpt>
      <trkpt lat="43.47624" lon="-0.66658">
        <ele>185.872</ele>
        <time>2016-09-25T18:35:42Z</time>
      </trkpt>
      <trkpt lat="43.47587" lon="-0.66757">
        <ele>189.613</ele>
        <time>2016-09-25T18:36:02Z</time>
      </trkpt>
      <trkpt lat="43.47562" lon="-0.66761">
        <ele>189.114</ele>
        <time>2016-09-25T18:36:22Z</time>
      </trkpt>
      <trkpt lat="43.47534" lon="-0.66789">
        <ele>189.108</ele>
        <time>2016-09-25T18:36:42Z</time>
      </trkpt>
      <trkpt lat="43.47423" lon="-0.66772">
        <ele>165.573</ele>
        <time>2016-09-25T18:37:02Z</time>
      </trkpt>
      <trkpt lat="43.47375" lon="-0.66787">
        <ele>157.02</ele>
        <time>2016-09-25T18:37:22Z</time>
      </trkpt>
      <trkpt lat="43.47285" lon="-0.66776">
        <ele>140.02</ele>
        <time>2016-09-25T18:37:42Z</time>
      </trkpt>
      <trkpt lat="43.47238" lon="-0.66787">
        <ele>136.21</ele>
        <time>2016-09-25T18:38:02Z</time>
      </trkpt>
      <trkpt lat="43.47191" lon="-0.66761">
        <ele>134.325</ele>
        <time>2016-09-25T18:38:22Z</time>
      </trkpt>
      <trkpt lat="43.47074" lon="-0.66761">
        <ele>129.864</ele>
        <time>2016-09-25T18:38:42Z</time>
      </trkpt>
      <trkpt lat="43.47004" lon="-0.66806">
        <ele>123.541</ele>
        <time>2016-09-25T18:39:02Z</time>
      </trkpt>
      <trkpt lat="43.46895" lon="-0.66839">
        <ele>118.435</ele>
        <time>2016-09-25T18:39:22Z</time>
      </trkpt>
      <trkpt lat="43.46881" lon="-0.66894">
        <ele>120.175</ele>
        <time>2016-09-25T18:39:42Z</time>
      </trkpt>
      <trkpt lat="43.4683" lon="-0.66955">
        <ele>119.228</ele>
        <time>2016-09-25T18:40:02Z</time>
      </trkpt>
      <trkpt lat="43.4673" lon="-0.67238">
        <ele>116.62</ele>
        <time>2016-09-25T18:40:22Z</time>
      </trkpt>
      <trkpt lat="43.46609" lon="-0.67351">
        <ele>109.808</ele>
        <time>2016-09-25T18:40:42Z</time>
      </trkpt>
      <trkpt lat="43.46537" lon="-0.67442">
        <ele>106.74</ele>
        <time>2016-09-25T18:41:22Z</time>
      </trkpt>
      <trkpt lat="43.46433" lon="-0.67555">
        <ele>102.66</ele>
        <time>2016-09-25T18:41:42Z</time>
      </trkpt>
      <trkpt lat="43.46384" lon="-0.67633">
        <ele>100.81</ele>
        <time>2016-09-25T18:42:02Z</time>
      </trkpt>
      <trkpt lat="43.46236" lon="-0.67768">
        <ele>100.065</ele>
        <time>2016-09-25T18:42:22Z</time>
      </trkpt>
      <trkpt lat="43.46117" lon="-0.67851">
        <ele>95.014</ele>
        <time>2016-09-25T18:42:42Z</time>
      </trkpt>
      <trkpt lat="43.46059" lon="-0.67942">
        <ele>95.931</ele>
        <time>2016-09-25T18:43:02Z</time>
      </trkpt>
      <trkpt lat="43.45937" lon="-0.68068">
        <ele>97.385</ele>
        <time>2016-09-25T18:43:22Z</time>
      </trkpt>
      <trkpt lat="43.45763" lon="-0.68141">
        <ele>94.522</ele>
        <time>2016-09-25T18:43:42Z</time>
      </trkpt>
      <trkpt lat="43.45716" lon="-0.68184">
        <ele>95.062</ele>
        <time>2016-09-25T18:44:02Z</time>
      </trkpt>
      <trkpt lat="43.45624" lon="-0.68201">
        <ele>94.108</ele>
        <time>2016-09-25T18:44:22Z</time>
      </trkpt>
      <trkpt lat="43.455" lon="-0.68203">
        <ele>85.308</ele>
        <time>2016-09-25T18:44:42Z</time>
      </trkpt>
      <trkpt lat="43.45405" lon="-0.68261">
        <ele>77.948</ele>
        <time>2016-09-25T18:45:02Z</time>
      </trkpt>
      <trkpt lat="43.45349" lon="-0.68324">
        <ele>74.075</ele>
        <time>2016-09-25T18:45:22Z</time>
      </trkpt>
      <trkpt lat="43.45269" lon="-0.68326">
        <ele>72.785</ele>
        <time>2016-09-25T18:45:42Z</time>
      </trkpt>
      <trkpt lat="43.45199" lon="-0.68414">
        <ele>70.225</ele>
        <time>2016-09-25T18:46:02Z</time>
      </trkpt>
      <trkpt lat="43.44763" lon="-0.68858">
        <ele>74.04</ele>
        <time>2016-09-25T18:46:22Z</time>
      </trkpt>
      <trkpt lat="43.44704" lon="-0.68888">
        <ele>75.049</ele>
        <time>2016-09-25T18:46:42Z</time>
      </trkpt>
      <trkpt lat="43.44587" lon="-0.68903">
        <ele>75.076</ele>
        <time>2016-09-25T18:47:02Z</time>
      </trkpt>
      <trkpt lat="43.44459" lon="-0.68957">
        <ele>75.08</ele>
        <time>2016-09-25T18:47:22Z</time>
      </trkpt>
      <trkpt lat="43.44269" lon="-0.69057">
        <ele>75.025</ele>
        <time>2016-09-25T18:47:42Z</time>
      </trkpt>
      <trkpt lat="43.44218" lon="-0.69132">
        <ele>75.026</ele>
        <time>2016-09-25T18:48:02Z</time>
      </trkpt>
      <trkpt lat="43.44029" lon="-0.69321">
        <ele>76.008</ele>
        <time>2016-09-25T18:48:22Z</time>
      </trkpt>
      <trkpt lat="43.43948" lon="-0.69242">
        <ele>75.008</ele>
        <time>2016-09-25T18:48:42Z</time>
      </trkpt>
      <trkpt lat="43.43889" lon="-0.69302">
        <ele>76.038</ele>
        <time>2016-09-25T18:49:02Z</time>
      </trkpt>
      <trkpt lat="43.43841" lon="-0.69272">
        <ele>76.045</ele>
        <time>2016-09-25T18:49:22Z</time>
      </trkpt>
      <trkpt lat="43.43686" lon="-0.69259">
        <ele>75.245</ele>
        <time>2016-09-25T18:49:42Z</time>
      </trkpt>
      <trkpt lat="43.4347" lon="-0.69381">
        <ele>76.035</ele>
        <time>2016-09-25T18:50:02Z</time>
      </trkpt>
      <trkpt lat="43.43451" lon="-0.69343">
        <ele>75.81</ele>
        <time>2016-09-25T18:50:22Z</time>
      </trkpt>
      <trkpt lat="43.43317" lon="-0.69266">
        <ele>76.049</ele>
        <time>2016-09-25T18:50:42Z</time>
      </trkpt>
      <trkpt lat="43.4318" lon="-0.69072">
        <ele>77.096</ele>
        <time>2016-09-25T18:51:02Z</time>
      </trkpt>
      <trkpt lat="43.43023" lon="-0.68875">
        <ele>77.62</ele>
        <time>2016-09-25T18:51:22Z</time>
      </trkpt>
      <trkpt lat="43.42957" lon="-0.68813">
        <ele>78.047</ele>
        <time>2016-09-25T18:51:42Z</time>
      </trkpt>
      <trkpt lat="43.42918" lon="-0.68793">
        <ele>78.029</ele>
        <time>2016-09-25T18:52:02Z</time>
      </trkpt>
      <trkpt lat="43.42917" lon="-0.68725">
        <ele>78.021</ele>
        <time>2016-09-25T18:52:22Z</time>
      </trkpt>
      <trkpt lat="43.42862" lon="-0.68617">
        <ele>77.208</ele>
        <time>2016-09-25T18:52:42Z</time>
      </trkpt>
      <trkpt lat="43.42765" lon="-0.68484">
        <ele>77.24</ele>
        <time>2016-09-25T18:53:02Z</time>
      </trkpt>
      <trkpt lat="43.4272" lon="-0.68452">
        <ele>77.377</ele>
        <time>2016-09-25T18:53:22Z</time>
      </trkpt>
      <trkpt lat="43.42697" lon="-0.68407">
        <ele>77.087</ele>
        <time>2016-09-25T18:53:42Z</time>
      </trkpt>
      <trkpt lat="43.42507" lon="-0.6818">
        <ele>78.067</ele>
        <time>2016-09-25T18:54:02Z</time>
      </trkpt>
      <trkpt lat="43.42462" lon="-0.6815">
        <ele>78.042</ele>
        <time>2016-09-25T18:54:22Z</time>
      </trkpt>
      <trkpt lat="43.42418" lon="-0.68092">
        <ele>78.011</ele>
        <time>2016-09-25T18:54:42Z</time>
      </trkpt>
      <trkpt lat="43.42312" lon="-0.68015">
        <ele>78.888</ele>
        <time>2016-09-25T18:55:02Z</time>
      </trkpt>
      <trkpt lat="43.42187" lon="-0.67961">
        <ele>79.012</ele>
        <time>2016-09-25T18:55:22Z</time>
      </trkpt>
      <trkpt lat="43.421" lon="-0.67873">
        <ele>79.015</ele>
        <time>2016-09-25T18:55:42Z</time>
      </trkpt>
      <trkpt lat="43.41927" lon="-0.67761">
        <ele>87.065</ele>
        <time>2016-09-25T18:56:02Z</time>
      </trkpt>
      <trkpt lat="43.41788" lon="-0.67785">
        <ele>103.211</ele>
        <time>2016-09-25T18:56:22Z</time>
      </trkpt>
      <trkpt lat="43.41712" lon="-0.67836">
        <ele>111.308</ele>
        <time>2016-09-25T18:56:42Z</time>
      </trkpt>
      <trkpt lat="43.4157" lon="-0.67809">
        <ele>128.577</ele>
        <time>2016-09-25T18:57:02Z</time>
      </trkpt>
      <trkpt lat="43.41469" lon="-0.67673">
        <ele>148.214</ele>
        <time>2016-09-25T18:57:22Z</time>
      </trkpt>
      <trkpt lat="43.41389" lon="-0.67607">
        <ele>169.954</ele>
        <time>2016-09-25T18:57:42Z</time>
      </trkpt>
      <trkpt lat="43.4133" lon="-0.67648">
        <ele>172.934</ele>
        <time>2016-09-25T18:58:02Z</time>
      </trkpt>
      <trkpt lat="43.41221" lon="-0.67678">
        <ele>170.049</ele>
        <time>2016-09-25T18:58:22Z</time>
      </trkpt>
      <trkpt lat="43.41155" lon="-0.67729">
        <ele>173.078</ele>
        <time>2016-09-25T18:58:42Z</time>
      </trkpt>
      <trkpt lat="43.41124" lon="-0.67618">
        <ele>173.275</ele>
        <time>2016-09-25T18:59:02Z</time>
      </trkpt>
      <trkpt lat="43.41053" lon="-0.67605">
        <ele>166.139</ele>
        <time>2016-09-25T18:59:22Z</time>
      </trkpt>
      <trkpt lat="43.40934" lon="-0.67553">
        <ele>160.894</ele>
        <time>2016-09-25T18:59:42Z</time>
      </trkpt>
      <trkpt lat="43.40866" lon="-0.67609">
        <ele>147.257</ele>
        <time>2016-09-25T19:00:02Z</time>
      </trkpt>
      <trkpt lat="43.40732" lon="-0.67675">
        <ele>133.622</ele>
        <time>2016-09-25T19:00:22Z</time>
      </trkpt>
      <trkpt lat="43.40675" lon="-0.67806">
        <ele>118.208</ele>
        <time>2016-09-25T19:00:42Z</time>
      </trkpt>
      <trkpt lat="43.40625" lon="-0.67879">
        <ele>108.385</ele>
        <time>2016-09-25T19:01:02Z</time>
      </trkpt>
      <trkpt lat="43.40541" lon="-0.67791">
        <ele>105.752</ele>
        <time>2016-09-25T19:01:22Z</time>
      </trkpt>
      <trkpt lat="43.40382" lon="-0.67881">
        <ele>95.072</ele>
        <time>2016-09-25T19:01:42Z</time>
      </trkpt>
      <trkpt lat="43.40332" lon="-0.67866">
        <ele>95.082</ele>
        <time>2016-09-25T19:02:02Z</time>
      </trkpt>
      <trkpt lat="43.40109" lon="-0.67991">
        <ele>100.067</ele>
        <time>2016-09-25T19:02:22Z</time>
      </trkpt>
      <trkpt lat="43.39936" lon="-0.68177">
        <ele>109.446</ele>
        <time>2019-03-30T17:40:05Z</time>
      </trkpt>
      <trkpt lat="43.39907" lon="-0.68184">
        <ele>109.263</ele>
        <time>2016-09-25T19:03:02Z</time>
      </trkpt>
      <trkpt lat="43.39826" lon="-0.68332">
        <ele>115.727</ele>
        <time>2016-09-25T19:03:22Z</time>
      </trkpt>
      <trkpt lat="43.39805" lon="-0.68332">
        <ele>114.958</ele>
        <time>2016-09-25T19:03:42Z</time>
      </trkpt>
      <trkpt lat="43.39726" lon="-0.68463">
        <ele>117.752</ele>
        <time>2016-09-25T19:04:02Z</time>
      </trkpt>
      <trkpt lat="43.39684" lon="-0.68459">
        <ele>114.317</ele>
        <time>2016-09-25T19:04:22Z</time>
      </trkpt>
      <trkpt lat="43.39676" lon="-0.6848">
        <ele>115.908</ele>
        <time>2016-09-25T19:04:42Z</time>
      </trkpt>
      <trkpt lat="43.3964" lon="-0.6848">
        <ele>115.091</ele>
        <time>2016-09-25T19:05:02Z</time>
      </trkpt>
      <trkpt lat="43.39614" lon="-0.68512">
        <ele>115.038</ele>
        <time>2016-09-25T19:05:22Z</time>
      </trkpt>
      <trkpt lat="43.39546" lon="-0.68451">
        <ele>123.488</ele>
        <time>2019-03-30T17:43:05Z</time>
      </trkpt>
      <trkpt lat="43.39423" lon="-0.68429">
        <ele>129.438</ele>
        <time>2016-09-25T19:06:02Z</time>
      </trkpt>
      <trkpt lat="43.39397" lon="-0.68459">
        <ele>130.453</ele>
        <time>2016-09-25T19:06:22Z</time>
      </trkpt>
      <trkpt lat="43.39453" lon="-0.68517">
        <ele>125.022</ele>
        <time>2016-09-25T19:06:42Z</time>
      </trkpt>
      <trkpt lat="43.39423" lon="-0.68626">
        <ele>126.199</ele>
        <time>2016-09-25T19:07:02Z</time>
      </trkpt>
      <trkpt lat="43.39388" lon="-0.68663">
        <ele>129.553</ele>
        <time>2019-03-30T17:44:45Z</time>
      </trkpt>
      <trkpt lat="43.39405" lon="-0.68905">
        <ele>152.983</ele>
        <time>2016-09-25T19:07:42Z</time>
      </trkpt>
      <trkpt lat="43.39445" lon="-0.69032">
        <ele>163.225</ele>
        <time>2016-09-25T19:08:02Z</time>
      </trkpt>
      <trkpt lat="43.39436" lon="-0.69092">
        <ele>167.317</ele>
        <time>2016-09-25T19:08:22Z</time>
      </trkpt>
      <trkpt lat="43.39447" lon="-0.69158">
        <ele>171.608</ele>
        <time>2016-09-25T19:08:42Z</time>
      </trkpt>
      <trkpt lat="43.39447" lon="-0.6925">
        <ele>177.184</ele>
        <time>2016-09-25T19:09:02Z</time>
      </trkpt>
      <trkpt lat="43.39395" lon="-0.69399">
        <ele>191.911</ele>
        <time>2016-09-25T19:09:22Z</time>
      </trkpt>
      <trkpt lat="43.39419" lon="-0.69476">
        <ele>198.141</ele>
        <time>2016-09-25T19:09:42Z</time>
      </trkpt>
      <trkpt lat="43.39404" lon="-0.69495">
        <ele>196.541</ele>
        <time>2019-03-30T17:47:25Z</time>
      </trkpt>
      <trkpt lat="43.39393" lon="-0.69777">
        <ele>163.026</ele>
        <time>2019-03-30T17:47:45Z</time>
      </trkpt>
      <trkpt lat="43.39399" lon="-0.70081">
        <ele>149.335</ele>
        <time>2016-09-25T19:10:22Z</time>
      </trkpt>
      <trkpt lat="43.39481" lon="-0.70377">
        <ele>125.272</ele>
        <time>2016-09-25T19:10:42Z</time>
      </trkpt>
      <trkpt lat="43.39589" lon="-0.70476">
        <ele>113.386</ele>
        <time>2016-09-25T19:11:02Z</time>
      </trkpt>
      <trkpt lat="43.39606" lon="-0.70525">
        <ele>108.694</ele>
        <time>2016-09-25T19:11:22Z</time>
      </trkpt>
      <trkpt lat="43.39537" lon="-0.70639">
        <ele>110.357</ele>
        <time>2016-09-25T19:11:42Z</time>
      </trkpt>
      <trkpt lat="43.39503" lon="-0.70804">
        <ele>118.222</ele>
        <time>2016-09-25T19:12:02Z</time>
      </trkpt>
      <trkpt lat="43.39037" lon="-0.70712">
        <ele>126.908</ele>
        <time>2016-09-25T19:12:22Z</time>
      </trkpt>
      <trkpt lat="43.38904" lon="-0.70622">
        <ele>127.895</ele>
        <time>2016-09-25T19:12:42Z</time>
      </trkpt>
      <trkpt lat="43.38681" lon="-0.70581">
        <ele>137.242</ele>
        <time>2016-09-25T19:13:02Z</time>
      </trkpt>
      <trkpt lat="43.38608" lon="-0.70624">
        <ele>140.052</ele>
        <time>2016-09-25T19:13:22Z</time>
      </trkpt>
      <trkpt lat="43.3853" lon="-0.70707">
        <ele>138.392</ele>
        <time>2016-09-25T19:13:42Z</time>
      </trkpt>
      <trkpt lat="43.38229" lon="-0.70793">
        <ele>122.737</ele>
        <time>2016-09-25T19:14:02Z</time>
      </trkpt>
      <trkpt lat="43.38184" lon="-0.70834">
        <ele>125.766</ele>
        <time>2016-09-25T19:14:22Z</time>
      </trkpt>
      <trkpt lat="43.38125" lon="-0.70937">
        <ele>135.523</ele>
        <time>2016-09-25T19:14:42Z</time>
      </trkpt>
      <trkpt lat="43.38067" lon="-0.70967">
        <ele>136.557</ele>
        <time>2016-09-25T19:15:02Z</time>
      </trkpt>
      <trkpt lat="43.38047" lon="-0.70967">
        <ele>136.123</ele>
        <time>2016-09-25T19:15:22Z</time>
      </trkpt>
      <trkpt lat="43.38017" lon="-0.71004">
        <ele>140.483</ele>
        <time>2016-09-25T19:15:42Z</time>
      </trkpt>
      <trkpt lat="43.37964" lon="-0.71336">
        <ele>175.011</ele>
        <time>2016-09-25T19:16:02Z</time>
      </trkpt>
      <trkpt lat="43.37858" lon="-0.71396">
        <ele>175.008</ele>
        <time>2016-09-25T19:16:22Z</time>
      </trkpt>
      <trkpt lat="43.37749" lon="-0.71422">
        <ele>175.668</ele>
        <time>2016-09-25T19:16:42Z</time>
      </trkpt>
      <trkpt lat="43.37622" lon="-0.71398">
        <ele>177.665</ele>
        <time>2016-09-25T19:17:02Z</time>
      </trkpt>
      <trkpt lat="43.37499" lon="-0.71416">
        <ele>187.135</ele>
        <time>2016-09-25T19:17:22Z</time>
      </trkpt>
      <trkpt lat="43.37449" lon="-0.71409">
        <ele>192.425</ele>
        <time>2016-09-25T19:17:42Z</time>
      </trkpt>
      <trkpt lat="43.37343" lon="-0.71465">
        <ele>199.27</ele>
        <time>2016-09-25T19:18:02Z</time>
      </trkpt>
      <trkpt lat="43.3729" lon="-0.71546">
        <ele>203.839</ele>
        <time>2016-09-25T19:18:22Z</time>
      </trkpt>
      <trkpt lat="43.37236" lon="-0.71701">
        <ele>218.986</ele>
        <time>2016-09-25T19:18:42Z</time>
      </trkpt>
      <trkpt lat="43.37212" lon="-0.71815">
        <ele>225.07</ele>
        <time>2016-09-25T19:19:02Z</time>
      </trkpt>
      <trkpt lat="43.37089" lon="-0.72019">
        <ele>238.568</ele>
        <time>2016-09-25T19:19:22Z</time>
      </trkpt>
      <trkpt lat="43.37044" lon="-0.72057">
        <ele>246.642</ele>
        <time>2016-09-25T19:19:42Z</time>
      </trkpt>
      <trkpt lat="43.37041" lon="-0.72094">
        <ele>247.326</ele>
        <time>2016-09-25T19:20:02Z</time>
      </trkpt>
      <trkpt lat="43.37119" lon="-0.72396">
        <ele>239.208</ele>
        <time>2016-09-25T19:20:22Z</time>
      </trkpt>
      <trkpt lat="43.372" lon="-0.72531">
        <ele>240.022</ele>
        <time>2016-09-25T19:20:42Z</time>
      </trkpt>
      <trkpt lat="43.37377" lon="-0.72652">
        <ele>240.929</ele>
        <time>2016-09-25T19:21:02Z</time>
      </trkpt>
      <trkpt lat="43.37382" lon="-0.72686">
        <ele>239.869</ele>
        <time>2016-09-25T19:21:22Z</time>
      </trkpt>
      <trkpt lat="43.37371" lon="-0.7274">
        <ele>236.519</ele>
        <time>2016-09-25T19:21:42Z</time>
      </trkpt>
      <trkpt lat="43.3739" lon="-0.72821">
        <ele>232.534</ele>
        <time>2016-09-25T19:22:02Z</time>
      </trkpt>
      <trkpt lat="43.37385" lon="-0.72905">
        <ele>226.463</ele>
        <time>2016-09-25T19:22:22Z</time>
      </trkpt>
      <trkpt lat="43.37409" lon="-0.72963">
        <ele>220.14</ele>
        <time>2016-09-25T19:22:42Z</time>
      </trkpt>
      <trkpt lat="43.37332" lon="-0.73006">
        <ele>213.434</ele>
        <time>2016-09-25T19:23:02Z</time>
      </trkpt>
      <trkpt lat="43.37243" lon="-0.73001">
        <ele>211.517</ele>
        <time>2016-09-25T19:23:22Z</time>
      </trkpt>
      <trkpt lat="43.37156" lon="-0.73044">
        <ele>199.687</ele>
        <time>2016-09-25T19:23:42Z</time>
      </trkpt>
      <trkpt lat="43.37109" lon="-0.73048">
        <ele>189.915</ele>
        <time>2016-09-25T19:24:02Z</time>
      </trkpt>
      <trkpt lat="43.37044" lon="-0.73091">
        <ele>181.408</ele>
        <time>2016-09-25T19:24:22Z</time>
      </trkpt>
      <trkpt lat="43.36995" lon="-0.73179">
        <ele>172.544</ele>
        <time>2016-09-25T19:25:02Z</time>
      </trkpt>
      <trkpt lat="43.36945" lon="-0.7325">
        <ele>161.174</ele>
        <time>2016-09-25T19:25:22Z</time>
      </trkpt>
      <trkpt lat="43.36846" lon="-0.73229">
        <ele>155.794</ele>
        <time>2016-09-25T19:25:42Z</time>
      </trkpt>
      <trkpt lat="43.36805" lon="-0.73173">
        <ele>157.329</ele>
        <time>2016-09-25T19:26:02Z</time>
      </trkpt>
      <trkpt lat="43.36768" lon="-0.73136">
        <ele>159.298</ele>
        <time>2016-09-25T19:26:22Z</time>
      </trkpt>
      <trkpt lat="43.36713" lon="-0.73197">
        <ele>171.525</ele>
        <time>2016-09-25T19:26:42Z</time>
      </trkpt>
      <trkpt lat="43.36696" lon="-0.73321">
        <ele>180.429</ele>
        <time>2016-09-25T19:27:02Z</time>
      </trkpt>
      <trkpt lat="43.36705" lon="-0.73407">
        <ele>183.582</ele>
        <time>2016-09-25T19:27:22Z</time>
      </trkpt>
      <trkpt lat="43.36739" lon="-0.73533">
        <ele>188.843</ele>
        <time>2016-09-25T19:27:42Z</time>
      </trkpt>
      <trkpt lat="43.36719" lon="-0.73602">
        <ele>195.617</ele>
        <time>2016-09-25T19:28:02Z</time>
      </trkpt>
      <trkpt lat="43.36671" lon="-0.73684">
        <ele>203.908</ele>
        <time>2016-09-25T19:28:22Z</time>
      </trkpt>
      <trkpt lat="43.3661" lon="-0.73877">
        <ele>223.444</ele>
        <time>2016-09-25T19:28:42Z</time>
      </trkpt>
      <trkpt lat="43.36573" lon="-0.73935">
        <ele>230.461</ele>
        <time>2016-09-25T19:29:02Z</time>
      </trkpt>
      <trkpt lat="43.36529" lon="-0.73958">
        <ele>240.811</ele>
        <time>2016-09-25T19:29:22Z</time>
      </trkpt>
      <trkpt lat="43.3646" lon="-0.74029">
        <ele>240.891</ele>
        <time>2016-09-25T19:29:42Z</time>
      </trkpt>
      <trkpt lat="43.36399" lon="-0.74036">
        <ele>240.376</ele>
        <time>2016-09-25T19:30:02Z</time>
      </trkpt>
      <trkpt lat="43.36392" lon="-0.74066">
        <ele>241.035</ele>
        <time>2016-09-25T19:30:22Z</time>
      </trkpt>
      <trkpt lat="43.36334" lon="-0.74036">
        <ele>240.322</ele>
        <time>2016-09-25T19:30:42Z</time>
      </trkpt>
      <trkpt lat="43.36215" lon="-0.73945">
        <ele>240.076</ele>
        <time>2016-09-25T19:31:02Z</time>
      </trkpt>
      <trkpt lat="43.35978" lon="-0.73821">
        <ele>249.572</ele>
        <time>2016-09-25T19:31:22Z</time>
      </trkpt>
      <trkpt lat="43.35925" lon="-0.73754">
        <ele>250.013</ele>
        <time>2016-09-25T19:31:42Z</time>
      </trkpt>
      <trkpt lat="43.35594" lon="-0.73613">
        <ele>256.614</ele>
        <time>2016-09-25T19:32:02Z</time>
      </trkpt>
      <trkpt lat="43.35498" lon="-0.73604">
        <ele>256.908</ele>
        <time>2016-09-25T19:32:22Z</time>
      </trkpt>
      <trkpt lat="43.35463" lon="-0.73581">
        <ele>256.613</ele>
        <time>2016-09-25T19:32:42Z</time>
      </trkpt>
      <trkpt lat="43.35293" lon="-0.73364">
        <ele>254.04</ele>
        <time>2016-09-25T19:33:02Z</time>
      </trkpt>
      <trkpt lat="43.35187" lon="-0.73317">
        <ele>257.54</ele>
        <time>2016-09-25T19:33:22Z</time>
      </trkpt>
      <trkpt lat="43.35092" lon="-0.73237">
        <ele>258.01</ele>
        <time>2016-09-25T19:33:42Z</time>
      </trkpt>
      <trkpt lat="43.35064" lon="-0.73302">
        <ele>260.035</ele>
        <time>2016-09-25T19:34:02Z</time>
      </trkpt>
      <trkpt lat="43.34967" lon="-0.73321">
        <ele>260.194</ele>
        <time>2016-09-25T19:34:22Z</time>
      </trkpt>
      <trkpt lat="43.34788" lon="-0.73443">
        <ele>254.211</ele>
        <time>2016-09-25T19:34:42Z</time>
      </trkpt>
      <trkpt lat="43.34572" lon="-0.73649">
        <ele>237.785</ele>
        <time>2016-09-25T19:35:02Z</time>
      </trkpt>
      <trkpt lat="43.34443" lon="-0.7363">
        <ele>225.638</ele>
        <time>2016-09-25T19:35:22Z</time>
      </trkpt>
      <trkpt lat="43.34402" lon="-0.73677">
        <ele>218.77</ele>
        <time>2016-09-25T19:35:42Z</time>
      </trkpt>
      <trkpt lat="43.34332" lon="-0.73701">
        <ele>208.617</ele>
        <time>2016-09-25T19:36:02Z</time>
      </trkpt>
      <trkpt lat="43.34238" lon="-0.73662">
        <ele>193.108</ele>
        <time>2016-09-25T19:36:22Z</time>
      </trkpt>
      <trkpt lat="43.34149" lon="-0.73666">
        <ele>180.919</ele>
        <time>2016-09-25T19:36:42Z</time>
      </trkpt>
      <trkpt lat="43.3412" lon="-0.73703">
        <ele>178.286</ele>
        <time>2016-09-25T19:37:02Z</time>
      </trkpt>
      <trkpt lat="43.34064" lon="-0.73694">
        <ele>168.936</ele>
        <time>2016-09-25T19:37:22Z</time>
      </trkpt>
      <trkpt lat="43.34029" lon="-0.73707">
        <ele>165.186</ele>
        <time>2016-09-25T19:37:42Z</time>
      </trkpt>
      <trkpt lat="43.34003" lon="-0.73703">
        <ele>164.011</ele>
        <time>2016-09-25T19:38:02Z</time>
      </trkpt>
      <trkpt lat="43.33976" lon="-0.73729">
        <ele>163.29</ele>
        <time>2016-09-25T19:38:22Z</time>
      </trkpt>
      <trkpt lat="43.33936" lon="-0.73724">
        <ele>160.217</ele>
        <time>2016-09-25T19:38:42Z</time>
      </trkpt>
      <trkpt lat="43.3387" lon="-0.7378">
        <ele>160.191</ele>
        <time>2016-09-25T19:39:02Z</time>
      </trkpt>
      <trkpt lat="43.33808" lon="-0.73849">
        <ele>152.495</ele>
        <time>2016-09-25T19:39:22Z</time>
      </trkpt>
      <trkpt lat="43.33772" lon="-0.74042">
        <ele>157.549</ele>
        <time>2016-09-25T19:39:42Z</time>
      </trkpt>
      <trkpt lat="43.33794" lon="-0.74218">
        <ele>148.723</ele>
        <time>2016-09-25T19:40:02Z</time>
      </trkpt>
      <trkpt lat="43.33786" lon="-0.74362">
        <ele>147.408</ele>
        <time>2016-09-25T19:40:22Z</time>
      </trkpt>
      <trkpt lat="43.33762" lon="-0.7443">
        <ele>145.075</ele>
        <time>2016-09-25T19:40:42Z</time>
      </trkpt>
      <trkpt lat="43.33756" lon="-0.74628">
        <ele>142.912</ele>
        <time>2016-09-25T19:41:02Z</time>
      </trkpt>
      <trkpt lat="43.33783" lon="-0.74696">
        <ele>141.932</ele>
        <time>2016-09-25T19:41:22Z</time>
      </trkpt>
      <trkpt lat="43.338" lon="-0.74802">
        <ele>141.782</ele>
        <time>2016-09-25T19:41:42Z</time>
      </trkpt>
      <trkpt lat="43.33789" lon="-0.74971">
        <ele>140.827</ele>
        <time>2016-09-25T19:42:02Z</time>
      </trkpt>
      <trkpt lat="43.3377" lon="-0.75033">
        <ele>140.746</ele>
        <time>2016-09-25T19:42:22Z</time>
      </trkpt>
      <trkpt lat="43.33762" lon="-0.75216">
        <ele>139.073</ele>
        <time>2016-09-25T19:42:42Z</time>
      </trkpt>
      <trkpt lat="43.33781" lon="-0.75392">
        <ele>137.017</ele>
        <time>2016-09-25T19:43:02Z</time>
      </trkpt>
      <trkpt lat="43.33762" lon="-0.7554">
        <ele>136.652</ele>
        <time>2016-09-25T19:43:22Z</time>
      </trkpt>
      <trkpt lat="43.33698" lon="-0.75709">
        <ele>138.353</ele>
        <time>2016-09-25T19:43:42Z</time>
      </trkpt>
      <trkpt lat="43.33739" lon="-0.75887">
        <ele>133.508</ele>
        <time>2016-09-25T19:44:02Z</time>
      </trkpt>
      <trkpt lat="43.33791" lon="-0.76012">
        <ele>129.008</ele>
        <time>2016-09-25T19:44:22Z</time>
      </trkpt>
      <trkpt lat="43.33748" lon="-0.76063">
        <ele>128.041</ele>
        <time>2016-09-25T19:44:42Z</time>
      </trkpt>
      <trkpt lat="43.33698" lon="-0.76098">
        <ele>128.028</ele>
        <time>2016-09-25T19:45:02Z</time>
      </trkpt>
      <trkpt lat="43.33519" lon="-0.76278">
        <ele>127.048</ele>
        <time>2016-09-25T19:45:22Z</time>
      </trkpt>
      <trkpt lat="43.33467" lon="-0.764">
        <ele>126.098</ele>
        <time>2016-09-25T19:45:42Z</time>
      </trkpt>
      <trkpt lat="43.33394" lon="-0.76359">
        <ele>126.093</ele>
        <time>2016-09-25T19:46:02Z</time>
      </trkpt>
      <trkpt lat="43.33338" lon="-0.76289">
        <ele>127.612</ele>
        <time>2016-09-25T19:46:22Z</time>
      </trkpt>
      <trkpt lat="43.33255" lon="-0.76235">
        <ele>129.029</ele>
        <time>2016-09-25T19:46:42Z</time>
      </trkpt>
      <trkpt lat="43.33151" lon="-0.76229">
        <ele>128.843</ele>
        <time>2016-09-25T19:47:02Z</time>
      </trkpt>
      <trkpt lat="43.33102" lon="-0.76186">
        <ele>129.053</ele>
        <time>2016-09-25T19:47:22Z</time>
      </trkpt>
      <trkpt lat="43.33043" lon="-0.76106">
        <ele>129.204</ele>
        <time>2016-09-25T19:47:42Z</time>
      </trkpt>
      <trkpt lat="43.32996" lon="-0.76076">
        <ele>129.314</ele>
        <time>2016-09-25T19:48:02Z</time>
      </trkpt>
      <trkpt lat="43.3287" lon="-0.75905">
        <ele>131.008</ele>
        <time>2016-09-25T19:48:22Z</time>
      </trkpt>
      <trkpt lat="43.32771" lon="-0.75741">
        <ele>132.091</ele>
        <time>2016-09-25T19:48:42Z</time>
      </trkpt>
      <trkpt lat="43.32665" lon="-0.75628">
        <ele>132.488</ele>
        <time>2016-09-25T19:49:02Z</time>
      </trkpt>
      <trkpt lat="43.32545" lon="-0.75565">
        <ele>132.488</ele>
        <time>2016-09-25T19:49:22Z</time>
      </trkpt>
      <trkpt lat="43.32433" lon="-0.75456">
        <ele>130.038</ele>
        <time>2016-09-25T19:49:42Z</time>
      </trkpt>
      <trkpt lat="43.3242" lon="-0.7543">
        <ele>130.013</ele>
        <time>2016-09-25T19:50:02Z</time>
      </trkpt>
      <trkpt lat="43.32353" lon="-0.75415">
        <ele>132.362</ele>
        <time>2019-03-30T18:28:05Z</time>
      </trkpt>
      <trkpt lat="43.32258" lon="-0.75558">
        <ele>131.079</ele>
        <time>2019-03-30T18:28:25Z</time>
      </trkpt>
      <trkpt lat="43.32153" lon="-0.75765">
        <ele>126.263</ele>
        <time>2016-09-25T19:51:02Z</time>
      </trkpt>
      <trkpt lat="43.32092" lon="-0.75842">
        <ele>125.062</ele>
        <time>2016-09-25T19:51:22Z</time>
      </trkpt>
      <trkpt lat="43.32134" lon="-0.7593">
        <ele>124.083</ele>
        <time>2016-09-25T19:51:42Z</time>
      </trkpt>
      <trkpt lat="43.32342" lon="-0.76198">
        <ele>120.011</ele>
        <time>2019-03-30T18:29:45Z</time>
      </trkpt>
      <trkpt lat="43.3232" lon="-0.7623">
        <ele>120.008</ele>
        <time>2019-03-30T18:30:05Z</time>
      </trkpt>
      <trkpt lat="43.3231" lon="-0.7625">
        <ele>120.082</ele>
        <time>2019-03-30T18:30:25Z</time>
      </trkpt>
      <trkpt lat="43.32267" lon="-0.76271">
        <ele>120.169</ele>
        <time>2019-03-30T18:30:45Z</time>
      </trkpt>
      <trkpt lat="43.32266" lon="-0.76279">
        <ele>120.039</ele>
        <time>2019-03-30T18:31:05Z</time>
      </trkpt>
      <trkpt lat="43.32243" lon="-0.76285">
        <ele>120.279</ele>
        <time>2019-03-30T18:31:25Z</time>
      </trkpt>
      <trkpt lat="43.3223" lon="-0.76314">
        <ele>118.344</ele>
        <time>2016-09-25T19:53:02Z</time>
      </trkpt>
      <trkpt lat="43.3228" lon="-0.76533">
        <ele>119.333</ele>
        <time>2016-09-25T19:53:22Z</time>
      </trkpt>
      <trkpt lat="43.32387" lon="-0.76625">
        <ele>120.03</ele>
        <time>2016-09-25T19:53:42Z</time>
      </trkpt>
      <trkpt lat="43.32495" lon="-0.76988">
        <ele>122.644</ele>
        <time>2016-09-25T19:54:02Z</time>
      </trkpt>
      <trkpt lat="43.32494" lon="-0.77374">
        <ele>126.055</ele>
        <time>2016-09-25T19:54:22Z</time>
      </trkpt>
      <trkpt lat="43.32383" lon="-0.77971">
        <ele>134.307</ele>
        <time>2016-09-25T19:54:42Z</time>
      </trkpt>
      <trkpt lat="43.32412" lon="-0.7804">
        <ele>143.417</ele>
        <time>2016-09-25T19:55:02Z</time>
      </trkpt>
      <trkpt lat="43.32607" lon="-0.782">
        <ele>157.008</ele>
        <time>2016-09-25T19:55:22Z</time>
      </trkpt>
      <trkpt lat="43.32667" lon="-0.78222">
        <ele>156.081</ele>
        <time>2016-09-25T19:55:42Z</time>
      </trkpt>
      <trkpt lat="43.32774" lon="-0.782">
        <ele>155.258</ele>
        <time>2016-09-25T19:56:02Z</time>
      </trkpt>
      <trkpt lat="43.32848" lon="-0.78241">
        <ele>155.818</ele>
        <time>2016-09-25T19:56:22Z</time>
      </trkpt>
      <trkpt lat="43.32846" lon="-0.78415">
        <ele>157.538</ele>
        <time>2016-09-25T19:56:42Z</time>
      </trkpt>
      <trkpt lat="43.32857" lon="-0.78621">
        <ele>158.163</ele>
        <time>2016-09-25T19:57:02Z</time>
      </trkpt>
      <trkpt lat="43.32876" lon="-0.78726">
        <ele>156.512</ele>
        <time>2016-09-25T19:57:22Z</time>
      </trkpt>
      <trkpt lat="43.33062" lon="-0.79001">
        <ele>155.069</ele>
        <time>2016-09-25T19:57:42Z</time>
      </trkpt>
      <trkpt lat="43.33018" lon="-0.79065">
        <ele>150.713</ele>
        <time>2016-09-25T19:58:02Z</time>
      </trkpt>
      <trkpt lat="43.33034" lon="-0.79168">
        <ele>144.661</ele>
        <time>2016-09-25T19:58:22Z</time>
      </trkpt>
      <trkpt lat="43.32974" lon="-0.79241">
        <ele>135.221</ele>
        <time>2016-09-25T19:58:42Z</time>
      </trkpt>
      <trkpt lat="43.32981" lon="-0.79344">
        <ele>130.913</ele>
        <time>2016-09-25T19:59:02Z</time>
      </trkpt>
      <trkpt lat="43.32954" lon="-0.79512">
        <ele>123.608</ele>
        <time>2016-09-25T19:59:22Z</time>
      </trkpt>
      <trkpt lat="43.32904" lon="-0.79593">
        <ele>122.652</ele>
        <time>2016-09-25T19:59:42Z</time>
      </trkpt>
      <trkpt lat="43.32737" lon="-0.79683">
        <ele>126.979</ele>
        <time>2016-09-25T20:00:02Z</time>
      </trkpt>
      <trkpt lat="43.32704" lon="-0.79724">
        <ele>124.969</ele>
        <time>2016-09-25T20:00:22Z</time>
      </trkpt>
      <trkpt lat="43.32579" lon="-0.79838">
        <ele>118.119</ele>
        <time>2016-09-25T20:00:42Z</time>
      </trkpt>
      <trkpt lat="43.32537" lon="-0.79844">
        <ele>119.064</ele>
        <time>2016-09-25T20:01:02Z</time>
      </trkpt>
      <trkpt lat="43.32609" lon="-0.79988">
        <ele>118.053</ele>
        <time>2016-09-25T20:01:22Z</time>
      </trkpt>
      <trkpt lat="43.32646" lon="-0.80226">
        <ele>119.05</ele>
        <time>2016-09-25T20:01:42Z</time>
      </trkpt>
      <trkpt lat="43.32637" lon="-0.80314">
        <ele>119.344</ele>
        <time>2016-09-25T20:02:02Z</time>
      </trkpt>
      <trkpt lat="43.32592" lon="-0.80415">
        <ele>123.636</ele>
        <time>2016-09-25T20:02:22Z</time>
      </trkpt>
      <trkpt lat="43.32586" lon="-0.80492">
        <ele>126.617</ele>
        <time>2016-09-25T20:02:42Z</time>
      </trkpt>
      <trkpt lat="43.32592" lon="-0.80522">
        <ele>127.518</ele>
        <time>2021-01-03T20:26:40Z</time>
      </trkpt>
      <trkpt lat="43.32661" lon="-0.80619">
        <ele>139.608</ele>
        <time>2021-01-03T20:27:00Z</time>
      </trkpt>
      <trkpt lat="43.32687" lon="-0.80578">
        <ele>135.179</ele>
        <time>2016-09-25T20:04:42Z</time>
      </trkpt>
      <trkpt lat="43.32736" lon="-0.80539">
        <ele>131.876</ele>
        <time>2021-01-03T20:27:40Z</time>
      </trkpt>
      <trkpt lat="43.32758" lon="-0.80542">
        <ele>132.296</ele>
        <time>2021-01-03T20:28:00Z</time>
      </trkpt>
      <trkpt lat="43.32811" lon="-0.80594">
        <ele>127.796</ele>
        <time>2021-01-03T20:28:20Z</time>
      </trkpt>
      <trkpt lat="43.32838" lon="-0.8061">
        <ele>121.881</ele>
        <time>2016-09-25T20:06:02Z</time>
      </trkpt>
      <trkpt lat="43.32883" lon="-0.80673">
        <ele>120.03</ele>
        <time>2021-01-03T20:29:00Z</time>
      </trkpt>
      <trkpt lat="43.32898" lon="-0.80724">
        <ele>120.067</ele>
        <time>2016-09-25T20:06:42Z</time>
      </trkpt>
      <trkpt lat="43.32924" lon="-0.80715">
        <ele>120.031</ele>
        <time>2016-09-25T20:07:02Z</time>
      </trkpt>
      <trkpt lat="43.32966" lon="-0.80752">
        <ele>120.054</ele>
        <time>2016-09-25T20:07:22Z</time>
      </trkpt>
      <trkpt lat="43.32898" lon="-0.80945">
        <ele>121.756</ele>
        <time>2016-09-25T20:07:42Z</time>
      </trkpt>
      <trkpt lat="43.3277" lon="-0.81029">
        <ele>122.011</ele>
        <time>2016-09-25T20:08:02Z</time>
      </trkpt>
      <trkpt lat="43.32723" lon="-0.81046">
        <ele>123.008</ele>
        <time>2016-09-25T20:08:22Z</time>
      </trkpt>
      <trkpt lat="43.32639" lon="-0.8117">
        <ele>130.011</ele>
        <time>2016-09-25T20:08:42Z</time>
      </trkpt>
      <trkpt lat="43.32612" lon="-0.81301">
        <ele>130.058</ele>
        <time>2016-09-25T20:09:02Z</time>
      </trkpt>
      <trkpt lat="43.32515" lon="-0.814">
        <ele>128.978</ele>
        <time>2016-09-25T20:09:22Z</time>
      </trkpt>
      <trkpt lat="43.3247" lon="-0.81496">
        <ele>128.918</ele>
        <time>2016-09-25T20:09:42Z</time>
      </trkpt>
      <trkpt lat="43.32473" lon="-0.81604">
        <ele>126.473</ele>
        <time>2016-09-25T20:10:02Z</time>
      </trkpt>
      <trkpt lat="43.32509" lon="-0.81797">
        <ele>126.732</ele>
        <time>2016-09-25T20:10:22Z</time>
      </trkpt>
      <trkpt lat="43.32451" lon="-0.82031">
        <ele>126.619</ele>
        <time>2016-09-25T20:10:42Z</time>
      </trkpt>
      <trkpt lat="43.32476" lon="-0.82059">
        <ele>128.363</ele>
        <time>2016-09-25T20:11:02Z</time>
      </trkpt>
      <trkpt lat="43.32465" lon="-0.8214">
        <ele>128.577</ele>
        <time>2016-09-25T20:11:22Z</time>
      </trkpt>
      <trkpt lat="43.32494" lon="-0.82164">
        <ele>132.761</ele>
        <time>2016-09-25T20:11:42Z</time>
      </trkpt>
      <trkpt lat="43.32515" lon="-0.8223">
        <ele>138.727</ele>
        <time>2016-09-25T20:12:02Z</time>
      </trkpt>
      <trkpt lat="43.32553" lon="-0.82265">
        <ele>142.308</ele>
        <time>2016-09-25T20:12:22Z</time>
      </trkpt>
      <trkpt lat="43.32558" lon="-0.82297">
        <ele>143.393</ele>
        <time>2016-09-25T20:12:42Z</time>
      </trkpt>
      <trkpt lat="43.32575" lon="-0.82305">
        <ele>146.49</ele>
        <time>2016-09-25T20:13:02Z</time>
      </trkpt>
      <trkpt lat="43.32651" lon="-0.82458">
        <ele>149.62</ele>
        <time>2016-09-25T20:13:22Z</time>
      </trkpt>
      <trkpt lat="43.32684" lon="-0.82481">
        <ele>151.59</ele>
        <time>2016-09-25T20:13:42Z</time>
      </trkpt>
      <trkpt lat="43.32756" lon="-0.82623">
        <ele>158.825</ele>
        <time>2016-09-25T20:14:02Z</time>
      </trkpt>
      <trkpt lat="43.32795" lon="-0.82571">
        <ele>159.724</ele>
        <time>2016-09-25T20:14:22Z</time>
      </trkpt>
      <trkpt lat="43.32959" lon="-0.82745">
        <ele>160.031</ele>
        <time>2016-09-25T20:14:42Z</time>
      </trkpt>
      <trkpt lat="43.33119" lon="-0.8288">
        <ele>166.375</ele>
        <time>2016-09-25T20:15:02Z</time>
      </trkpt>
      <trkpt lat="43.33165" lon="-0.83005">
        <ele>170.221</ele>
        <time>2016-09-25T20:15:22Z</time>
      </trkpt>
      <trkpt lat="43.33162" lon="-0.83095">
        <ele>170.741</ele>
        <time>2016-09-25T20:15:42Z</time>
      </trkpt>
      <trkpt lat="43.33023" lon="-0.83005">
        <ele>165.005</ele>
        <time>2016-09-25T20:16:02Z</time>
      </trkpt>
      <trkpt lat="43.32932" lon="-0.83018">
        <ele>159.308</ele>
        <time>2016-09-25T20:16:22Z</time>
      </trkpt>
      <trkpt lat="43.32692" lon="-0.82938">
        <ele>141.128</ele>
        <time>2016-09-25T20:16:42Z</time>
      </trkpt>
      <trkpt lat="43.32625" lon="-0.83024">
        <ele>135.035</ele>
        <time>2016-09-25T20:17:02Z</time>
      </trkpt>
      <trkpt lat="43.32646" lon="-0.83095">
        <ele>135.015</ele>
        <time>2016-09-25T20:17:22Z</time>
      </trkpt>
      <trkpt lat="43.32579" lon="-0.83181">
        <ele>141.745</ele>
        <time>2016-09-25T20:17:42Z</time>
      </trkpt>
      <trkpt lat="43.32539" lon="-0.8314">
        <ele>148.01</ele>
        <time>2016-09-25T20:18:02Z</time>
      </trkpt>
      <trkpt lat="43.32506" lon="-0.83155">
        <ele>152.829</ele>
        <time>2016-09-25T20:18:22Z</time>
      </trkpt>
      <trkpt lat="43.32472" lon="-0.83256">
        <ele>160.08</ele>
        <time>2016-09-25T20:19:02Z</time>
      </trkpt>
      <trkpt lat="43.32431" lon="-0.83307">
        <ele>160.019</ele>
        <time>2016-09-25T20:19:22Z</time>
      </trkpt>
      <trkpt lat="43.32392" lon="-0.83425">
        <ele>161.809</ele>
        <time>2016-09-25T20:19:42Z</time>
      </trkpt>
      <trkpt lat="43.32195" lon="-0.83507">
        <ele>170.019</ele>
        <time>2016-09-25T20:20:02Z</time>
      </trkpt>
      <trkpt lat="43.3203" lon="-0.83531">
        <ele>178.508</ele>
        <time>2016-09-25T20:20:22Z</time>
      </trkpt>
      <trkpt lat="43.31981" lon="-0.83556">
        <ele>180.057</ele>
        <time>2016-09-25T20:20:42Z</time>
      </trkpt>
      <trkpt lat="43.31739" lon="-0.83636">
        <ele>192.744</ele>
        <time>2016-09-25T20:21:02Z</time>
      </trkpt>
      <trkpt lat="43.31669" lon="-0.8381">
        <ele>193.614</ele>
        <time>2016-09-25T20:21:22Z</time>
      </trkpt>
      <trkpt lat="43.3163" lon="-0.83839">
        <ele>190.214</ele>
        <time>2019-03-30T19:00:25Z</time>
      </trkpt>
      <trkpt lat="43.31582" lon="-0.83979">
        <ele>180.169</ele>
        <time>2019-03-30T19:00:45Z</time>
      </trkpt>
      <trkpt lat="43.31531" lon="-0.84041">
        <ele>170.368</ele>
        <time>2019-03-30T19:01:05Z</time>
      </trkpt>
      <trkpt lat="43.31195" lon="-0.84136">
        <ele>170.015</ele>
        <time>2016-09-25T20:23:02Z</time>
      </trkpt>
      <trkpt lat="43.31188" lon="-0.84174">
        <ele>170.889</ele>
        <time>2016-09-25T20:23:22Z</time>
      </trkpt>
      <trkpt lat="43.31202" lon="-0.84299">
        <ele>162.748</ele>
        <time>2016-09-25T20:23:42Z</time>
      </trkpt>
      <trkpt lat="43.31184" lon="-0.84419">
        <ele>155.061</ele>
        <time>2016-09-25T20:24:02Z</time>
      </trkpt>
      <trkpt lat="43.31062" lon="-0.847">
        <ele>122.017</ele>
        <time>2016-09-25T20:24:22Z</time>
      </trkpt>
      <trkpt lat="43.31073" lon="-0.84788">
        <ele>119.808</ele>
        <time>2016-09-25T20:24:42Z</time>
      </trkpt>
      <trkpt lat="43.30998" lon="-0.8493">
        <ele>119.23</ele>
        <time>2016-09-25T20:25:02Z</time>
      </trkpt>
      <trkpt lat="43.30928" lon="-0.85118">
        <ele>115.097</ele>
        <time>2016-09-25T20:25:22Z</time>
      </trkpt>
      <trkpt lat="43.30926" lon="-0.85256">
        <ele>115.757</ele>
        <time>2016-09-25T20:25:42Z</time>
      </trkpt>
      <trkpt lat="43.30968" lon="-0.85462">
        <ele>117.677</ele>
        <time>2016-09-25T20:26:02Z</time>
      </trkpt>
      <trkpt lat="43.31021" lon="-0.85535">
        <ele>118.652</ele>
        <time>2016-09-25T20:26:22Z</time>
      </trkpt>
      <trkpt lat="43.30956" lon="-0.86021">
        <ele>124.871</ele>
        <time>2019-03-30T19:05:05Z</time>
      </trkpt>
      <trkpt lat="43.30966" lon="-0.86103">
        <ele>122.628</ele>
        <time>2019-03-30T19:05:25Z</time>
      </trkpt>
      <trkpt lat="43.31057" lon="-0.86292">
        <ele>118.542</ele>
        <time>2016-09-25T20:27:02Z</time>
      </trkpt>
      <trkpt lat="43.31074" lon="-0.86414">
        <ele>113.286</ele>
        <time>2016-09-25T20:27:22Z</time>
      </trkpt>
      <trkpt lat="43.31034" lon="-0.86507">
        <ele>110.96</ele>
        <time>2016-09-25T20:27:42Z</time>
      </trkpt>
      <trkpt lat="43.31009" lon="-0.86635">
        <ele>103.126</ele>
        <time>2016-09-25T20:28:02Z</time>
      </trkpt>
      <trkpt lat="43.31001" lon="-0.86814">
        <ele>101.008</ele>
        <time>2016-09-25T20:28:22Z</time>
      </trkpt>
      <trkpt lat="43.31076" lon="-0.86895">
        <ele>101.024</ele>
        <time>2016-09-25T20:28:42Z</time>
      </trkpt>
      <trkpt lat="43.31196" lon="-0.86872">
        <ele>102.081</ele>
        <time>2016-09-25T20:29:02Z</time>
      </trkpt>
      <trkpt lat="43.31309" lon="-0.8688">
        <ele>102.091</ele>
        <time>2016-09-25T20:29:22Z</time>
      </trkpt>
      <trkpt lat="43.31296" lon="-0.8697">
        <ele>101.741</ele>
        <time>2016-09-25T20:29:42Z</time>
      </trkpt>
      <trkpt lat="43.31315" lon="-0.86975">
        <ele>101.946</ele>
        <time>2016-09-25T20:30:02Z</time>
      </trkpt>
      <trkpt lat="43.31315" lon="-0.87026">
        <ele>101.065</ele>
        <time>2016-09-25T20:30:22Z</time>
      </trkpt>
      <trkpt lat="43.31154" lon="-0.86983">
        <ele>101.022</ele>
        <time>2016-09-25T20:30:42Z</time>
      </trkpt>
      <trkpt lat="43.30926" lon="-0.86949">
        <ele>100.066</ele>
        <time>2016-09-25T20:31:02Z</time>
      </trkpt>
      <trkpt lat="43.30725" lon="-0.86904">
        <ele>96.442</ele>
        <time>2016-09-25T20:31:22Z</time>
      </trkpt>
      <trkpt lat="43.30448" lon="-0.87258">
        <ele>105.322</ele>
        <time>2016-09-25T20:31:42Z</time>
      </trkpt>
      <trkpt lat="43.3044" lon="-0.87378">
        <ele>110.014</ele>
        <time>2016-09-25T20:32:02Z</time>
      </trkpt>
      <trkpt lat="43.30405" lon="-0.87414">
        <ele>110.008</ele>
        <time>2016-09-25T20:32:22Z</time>
      </trkpt>
      <trkpt lat="43.30395" lon="-0.87468">
        <ele>109.63</ele>
        <time>2016-09-25T20:32:42Z</time>
      </trkpt>
      <trkpt lat="43.30439" lon="-0.8759">
        <ele>105.267</ele>
        <time>2016-09-25T20:33:02Z</time>
      </trkpt>
      <trkpt lat="43.30431" lon="-0.87668">
        <ele>105.037</ele>
        <time>2016-09-25T20:33:22Z</time>
      </trkpt>
      <trkpt lat="43.30584" lon="-0.87912">
        <ele>112.877</ele>
        <time>2016-09-25T20:33:42Z</time>
      </trkpt>
      <trkpt lat="43.30711" lon="-0.8802">
        <ele>113.092</ele>
        <time>2016-09-25T20:34:02Z</time>
      </trkpt>
      <trkpt lat="43.3091" lon="-0.88397">
        <ele>115.051</ele>
        <time>2016-09-25T20:34:22Z</time>
      </trkpt>
      <trkpt lat="43.31095" lon="-0.88867">
        <ele>123.418</ele>
        <time>2016-09-25T20:34:42Z</time>
      </trkpt>
      <trkpt lat="43.31095" lon="-0.88925">
        <ele>124.442</ele>
        <time>2016-09-25T20:35:02Z</time>
      </trkpt>
      <trkpt lat="43.31149" lon="-0.89135">
        <ele>129.895</ele>
        <time>2016-09-25T20:35:22Z</time>
      </trkpt>
      <trkpt lat="43.3129" lon="-0.89421">
        <ele>145.649</ele>
        <time>2016-09-25T20:35:42Z</time>
      </trkpt>
      <trkpt lat="43.31368" lon="-0.89792">
        <ele>170.023</ele>
        <time>2016-09-25T20:36:02Z</time>
      </trkpt>
      <trkpt lat="43.31362" lon="-0.89833">
        <ele>169.908</ele>
        <time>2016-09-25T20:36:22Z</time>
      </trkpt>
      <trkpt lat="43.31254" lon="-0.89822">
        <ele>175.115</ele>
        <time>2016-09-25T20:36:42Z</time>
      </trkpt>
      <trkpt lat="43.31198" lon="-0.89867">
        <ele>179.022</ele>
        <time>2016-09-25T20:37:02Z</time>
      </trkpt>
      <trkpt lat="43.30993" lon="-0.89835">
        <ele>165.872</ele>
        <time>2016-09-25T20:37:22Z</time>
      </trkpt>
      <trkpt lat="43.30928" lon="-0.89785">
        <ele>165.052</ele>
        <time>2016-09-25T20:37:42Z</time>
      </trkpt>
      <trkpt lat="43.3075" lon="-0.89766">
        <ele>161.417</ele>
        <time>2016-09-25T20:38:02Z</time>
      </trkpt>
      <trkpt lat="43.30754" lon="-0.89899">
        <ele>161.226</ele>
        <time>2016-09-25T20:38:22Z</time>
      </trkpt>
      <trkpt lat="43.30867" lon="-0.9044">
        <ele>134.313</ele>
        <time>2016-09-25T20:38:42Z</time>
      </trkpt>
      <trkpt lat="43.30836" lon="-0.90429">
        <ele>128.617</ele>
        <time>2016-09-25T20:39:02Z</time>
      </trkpt>
      <trkpt lat="43.30882" lon="-0.90534">
        <ele>126.815</ele>
        <time>2016-09-25T20:39:22Z</time>
      </trkpt>
      <trkpt lat="43.31015" lon="-0.90624">
        <ele>110.065</ele>
        <time>2016-09-25T20:39:42Z</time>
      </trkpt>
      <trkpt lat="43.31168" lon="-0.90796">
        <ele>108.311</ele>
        <time>2016-09-25T20:40:02Z</time>
      </trkpt>
      <trkpt lat="43.31246" lon="-0.90843">
        <ele>101.308</ele>
        <time>2016-09-25T20:40:22Z</time>
      </trkpt>
      <trkpt lat="43.31293" lon="-0.90895">
        <ele>103.027</ele>
        <time>2016-09-25T20:40:42Z</time>
      </trkpt>
      <trkpt lat="43.31343" lon="-0.91232">
        <ele>102.814</ele>
        <time>2016-09-25T20:41:02Z</time>
      </trkpt>
      <trkpt lat="43.31432" lon="-0.91483">
        <ele>107.424</ele>
        <time>2016-09-25T20:41:22Z</time>
      </trkpt>
      <trkpt lat="43.31348" lon="-0.91463">
        <ele>105.224</ele>
        <time>2016-09-25T20:41:42Z</time>
      </trkpt>
      <trkpt lat="43.31218" lon="-0.91511">
        <ele>109.159</ele>
        <time>2016-09-25T20:42:02Z</time>
      </trkpt>
      <trkpt lat="43.31071" lon="-0.9162">
        <ele>110.288</ele>
        <time>2016-09-25T20:42:22Z</time>
      </trkpt>
      <trkpt lat="43.309" lon="-0.91695">
        <ele>111.355</ele>
        <time>2016-09-25T20:42:42Z</time>
      </trkpt>
      <trkpt lat="43.30793" lon="-0.91787">
        <ele>115.289</ele>
        <time>2016-09-25T20:43:02Z</time>
      </trkpt>
      <trkpt lat="43.3074" lon="-0.91888">
        <ele>114.668</ele>
        <time>2016-09-25T20:43:22Z</time>
      </trkpt>
      <trkpt lat="43.30659" lon="-0.92127">
        <ele>114.442</ele>
        <time>2016-09-25T20:43:42Z</time>
      </trkpt>
      <trkpt lat="43.30597" lon="-0.92245">
        <ele>114.326</ele>
        <time>2016-09-25T20:44:02Z</time>
      </trkpt>
      <trkpt lat="43.3049" lon="-0.92333">
        <ele>111.608</ele>
        <time>2016-09-25T20:44:22Z</time>
      </trkpt>
      <trkpt lat="43.30389" lon="-0.9236">
        <ele>110.042</ele>
        <time>2016-09-25T20:44:42Z</time>
      </trkpt>
      <trkpt lat="43.30326" lon="-0.92302">
        <ele>111.849</ele>
        <time>2016-09-25T20:45:02Z</time>
      </trkpt>
      <trkpt lat="43.30239" lon="-0.92285">
        <ele>114.469</ele>
        <time>2016-09-25T20:45:22Z</time>
      </trkpt>
      <trkpt lat="43.30142" lon="-0.923">
        <ele>116.749</ele>
        <time>2016-09-25T20:45:42Z</time>
      </trkpt>
      <trkpt lat="43.30094" lon="-0.9233">
        <ele>116.454</ele>
        <time>2016-09-25T20:46:02Z</time>
      </trkpt>
      <trkpt lat="43.29963" lon="-0.9235">
        <ele>120.393</ele>
        <time>2016-09-25T20:46:22Z</time>
      </trkpt>
      <trkpt lat="43.29899" lon="-0.92408">
        <ele>119.69</ele>
        <time>2016-09-25T20:46:42Z</time>
      </trkpt>
      <trkpt lat="43.29839" lon="-0.92365">
        <ele>122.844</ele>
        <time>2016-09-25T20:47:02Z</time>
      </trkpt>
      <trkpt lat="43.29775" lon="-0.92371">
        <ele>123.752</ele>
        <time>2016-09-25T20:47:22Z</time>
      </trkpt>
      <trkpt lat="43.29766" lon="-0.92457">
        <ele>131.153</ele>
        <time>2016-09-25T20:47:42Z</time>
      </trkpt>
      <trkpt lat="43.29647" lon="-0.92652">
        <ele>150.508</ele>
        <time>2016-09-25T20:48:02Z</time>
      </trkpt>
      <trkpt lat="43.29603" lon="-0.9277">
        <ele>164.208</ele>
        <time>2016-09-25T20:48:22Z</time>
      </trkpt>
      <trkpt lat="43.29472" lon="-0.92865">
        <ele>180.011</ele>
        <time>2016-09-25T20:48:42Z</time>
      </trkpt>
      <trkpt lat="43.29424" lon="-0.93006">
        <ele>189.918</ele>
        <time>2016-09-25T20:49:02Z</time>
      </trkpt>
      <trkpt lat="43.29416" lon="-0.93086">
        <ele>196.148</ele>
        <time>2016-09-25T20:49:22Z</time>
      </trkpt>
      <trkpt lat="43.29541" lon="-0.93438">
        <ele>207.168</ele>
        <time>2016-09-25T20:49:42Z</time>
      </trkpt>
      <trkpt lat="43.29547" lon="-0.93579">
        <ele>214.023</ele>
        <time>2016-09-25T20:50:02Z</time>
      </trkpt>
      <trkpt lat="43.29416" lon="-0.93856">
        <ele>199.742</ele>
        <time>2016-09-25T20:50:22Z</time>
      </trkpt>
      <trkpt lat="43.29449" lon="-0.94032">
        <ele>191.789</ele>
        <time>2016-09-25T20:50:42Z</time>
      </trkpt>
      <trkpt lat="43.29541" lon="-0.94086">
        <ele>181.393</ele>
        <time>2016-09-25T20:51:02Z</time>
      </trkpt>
      <trkpt lat="43.2958" lon="-0.94122">
        <ele>180.417</ele>
        <time>2016-09-25T20:51:22Z</time>
      </trkpt>
      <trkpt lat="43.29727" lon="-0.94034">
        <ele>177.987</ele>
        <time>2016-09-25T20:51:42Z</time>
      </trkpt>
      <trkpt lat="43.29866" lon="-0.93923">
        <ele>165.615</ele>
        <time>2016-09-25T20:52:02Z</time>
      </trkpt>
      <trkpt lat="43.29897" lon="-0.93957">
        <ele>173.808</ele>
        <time>2016-09-25T20:52:22Z</time>
      </trkpt>
      <trkpt lat="43.29988" lon="-0.93927">
        <ele>172.177</ele>
        <time>2016-09-25T20:52:42Z</time>
      </trkpt>
      <trkpt lat="43.30053" lon="-0.93841">
        <ele>182.964</ele>
        <time>2016-09-25T20:53:02Z</time>
      </trkpt>
      <trkpt lat="43.3005" lon="-0.93764">
        <ele>182.254</ele>
        <time>2016-09-25T20:53:22Z</time>
      </trkpt>
      <trkpt lat="43.30078" lon="-0.93734">
        <ele>185.034</ele>
        <time>2016-09-25T20:53:42Z</time>
      </trkpt>
      <trkpt lat="43.30147" lon="-0.93753">
        <ele>185.089</ele>
        <time>2016-09-25T20:54:02Z</time>
      </trkpt>
      <trkpt lat="43.30222" lon="-0.9368">
        <ele>176.488</ele>
        <time>2016-09-25T20:54:22Z</time>
      </trkpt>
      <trkpt lat="43.3023" lon="-0.93626">
        <ele>176.065</ele>
        <time>2016-09-25T20:54:42Z</time>
      </trkpt>
      <trkpt lat="43.30284" lon="-0.93609">
        <ele>165.579</ele>
        <time>2016-09-25T20:55:02Z</time>
      </trkpt>
      <trkpt lat="43.30342" lon="-0.93564">
        <ele>163.331</ele>
        <time>2016-09-25T20:55:22Z</time>
      </trkpt>
      <trkpt lat="43.30298" lon="-0.93648">
        <ele>159.161</ele>
        <time>2016-09-25T20:55:42Z</time>
      </trkpt>
      <trkpt lat="43.30326" lon="-0.93747">
        <ele>145.707</ele>
        <time>2016-09-25T20:56:02Z</time>
      </trkpt>
      <trkpt lat="43.30398" lon="-0.93877">
        <ele>129.908</ele>
        <time>2016-09-25T20:56:22Z</time>
      </trkpt>
      <trkpt lat="43.30403" lon="-0.93914">
        <ele>129.529</ele>
        <time>2016-09-25T20:56:42Z</time>
      </trkpt>
      <trkpt lat="43.30444" lon="-0.93965">
        <ele>120.486</ele>
        <time>2016-09-25T20:57:02Z</time>
      </trkpt>
      <trkpt lat="43.30484" lon="-0.94038">
        <ele>117.376</ele>
        <time>2016-09-25T20:57:22Z</time>
      </trkpt>
      <trkpt lat="43.30469" lon="-0.94124">
        <ele>111.336</ele>
        <time>2016-09-25T20:57:42Z</time>
      </trkpt>
      <trkpt lat="43.30465" lon="-0.94197">
        <ele>110.211</ele>
        <time>2016-09-25T20:58:02Z</time>
      </trkpt>
      <trkpt lat="43.30519" lon="-0.94253">
        <ele>108.92</ele>
        <time>2016-09-25T20:58:22Z</time>
      </trkpt>
      <trkpt lat="43.30637" lon="-0.94347">
        <ele>102.457</ele>
        <time>2016-09-25T20:58:42Z</time>
      </trkpt>
      <trkpt lat="43.30667" lon="-0.94414">
        <ele>107.241</ele>
        <time>2016-09-25T20:59:02Z</time>
      </trkpt>
      <trkpt lat="43.30701" lon="-0.94457">
        <ele>101.334</ele>
        <time>2016-09-25T20:59:22Z</time>
      </trkpt>
      <trkpt lat="43.30742" lon="-0.94446">
        <ele>100.255</ele>
        <time>2016-09-25T20:59:42Z</time>
      </trkpt>
      <trkpt lat="43.30818" lon="-0.94457">
        <ele>99.11</ele>
        <time>2016-09-25T21:00:02Z</time>
      </trkpt>
      <trkpt lat="43.30857" lon="-0.94536">
        <ele>99.008</ele>
        <time>2016-09-25T21:00:22Z</time>
      </trkpt>
      <trkpt lat="43.30885" lon="-0.94631">
        <ele>101.729</ele>
        <time>2016-09-25T21:00:42Z</time>
      </trkpt>
      <trkpt lat="43.3096" lon="-0.94586">
        <ele>99.726</ele>
        <time>2016-09-25T21:01:02Z</time>
      </trkpt>
      <trkpt lat="43.30957" lon="-0.94665">
        <ele>102.466</ele>
        <time>2016-09-25T21:01:22Z</time>
      </trkpt>
      <trkpt lat="43.30942" lon="-0.94738">
        <ele>105.186</ele>
        <time>2016-09-25T21:01:42Z</time>
      </trkpt>
      <trkpt lat="43.3096" lon="-0.94841">
        <ele>106.991</ele>
        <time>2016-09-25T21:02:02Z</time>
      </trkpt>
      <trkpt lat="43.30937" lon="-0.94929">
        <ele>110.08</ele>
        <time>2016-09-25T21:02:22Z</time>
      </trkpt>
      <trkpt lat="43.30825" lon="-0.95051">
        <ele>111.367</ele>
        <time>2016-09-25T21:02:42Z</time>
      </trkpt>
      <trkpt lat="43.30778" lon="-0.95128">
        <ele>111.691</ele>
        <time>2016-09-25T21:03:02Z</time>
      </trkpt>
      <trkpt lat="43.30743" lon="-0.95347">
        <ele>119.384</ele>
        <time>2016-09-25T21:03:22Z</time>
      </trkpt>
      <trkpt lat="43.30645" lon="-0.95547">
        <ele>120.307</ele>
        <time>2016-09-25T21:03:42Z</time>
      </trkpt>
      <trkpt lat="43.30565" lon="-0.95575">
        <ele>113.517</ele>
        <time>2016-09-25T21:04:02Z</time>
      </trkpt>
      <trkpt lat="43.30639" lon="-0.95839">
        <ele>129.008</ele>
        <time>2016-09-25T21:04:22Z</time>
      </trkpt>
      <trkpt lat="43.30576" lon="-0.95905">
        <ele>135.964</ele>
        <time>2016-09-25T21:04:42Z</time>
      </trkpt>
      <trkpt lat="43.30757" lon="-0.96201">
        <ele>142.881</ele>
        <time>2016-09-25T21:05:02Z</time>
      </trkpt>
      <trkpt lat="43.3085" lon="-0.96463">
        <ele>136.411</ele>
        <time>2016-09-25T21:05:22Z</time>
      </trkpt>
      <trkpt lat="43.30843" lon="-0.96547">
        <ele>129.151</ele>
        <time>2016-09-25T21:05:42Z</time>
      </trkpt>
      <trkpt lat="43.30862" lon="-0.96566">
        <ele>127.656</ele>
        <time>2016-09-25T21:06:02Z</time>
      </trkpt>
      <trkpt lat="43.30895" lon="-0.9656">
        <ele>129.395</ele>
        <time>2016-09-25T21:06:22Z</time>
      </trkpt>
      <trkpt lat="43.30776" lon="-0.96695">
        <ele>135.272</ele>
        <time>2016-09-25T21:06:42Z</time>
      </trkpt>
      <trkpt lat="43.30697" lon="-0.96742">
        <ele>143.696</ele>
        <time>2016-09-25T21:07:02Z</time>
      </trkpt>
      <trkpt lat="43.30558" lon="-0.96796">
        <ele>150.059</ele>
        <time>2016-09-25T21:07:22Z</time>
      </trkpt>
      <trkpt lat="43.30469" lon="-0.96856">
        <ele>158.703</ele>
        <time>2016-09-25T21:07:42Z</time>
      </trkpt>
      <trkpt lat="43.30417" lon="-0.96824">
        <ele>159.723</ele>
        <time>2016-09-25T21:08:02Z</time>
      </trkpt>
      <trkpt lat="43.30364" lon="-0.96744">
        <ele>162.408</ele>
        <time>2016-09-25T21:08:22Z</time>
      </trkpt>
      <trkpt lat="43.30283" lon="-0.96729">
        <ele>168.331</ele>
        <time>2016-09-25T21:08:42Z</time>
      </trkpt>
      <trkpt lat="43.30177" lon="-0.96637">
        <ele>161.718</ele>
        <time>2016-09-25T21:09:02Z</time>
      </trkpt>
      <trkpt lat="43.30019" lon="-0.96594">
        <ele>154.268</ele>
        <time>2016-09-25T21:09:22Z</time>
      </trkpt>
      <trkpt lat="43.299" lon="-0.96628">
        <ele>170.968</ele>
        <time>2016-09-25T21:09:42Z</time>
      </trkpt>
      <trkpt lat="43.29849" lon="-0.96727">
        <ele>173.443</ele>
        <time>2016-09-25T21:10:02Z</time>
      </trkpt>
      <trkpt lat="43.2976" lon="-0.96858">
        <ele>181.522</ele>
        <time>2016-09-25T21:10:22Z</time>
      </trkpt>
      <trkpt lat="43.29733" lon="-0.96954">
        <ele>181.779</ele>
        <time>2016-09-25T21:10:42Z</time>
      </trkpt>
      <trkpt lat="43.29703" lon="-0.96972">
        <ele>181.293</ele>
        <time>2016-09-25T21:11:02Z</time>
      </trkpt>
      <trkpt lat="43.29669" lon="-0.9697">
        <ele>178.815</ele>
        <time>2016-09-25T21:11:22Z</time>
      </trkpt>
      <trkpt lat="43.29475" lon="-0.97088">
        <ele>176.365</ele>
        <time>2016-09-25T21:11:42Z</time>
      </trkpt>
      <trkpt lat="43.29452" lon="-0.97229">
        <ele>186.011</ele>
        <time>2016-09-25T21:12:02Z</time>
      </trkpt>
      <trkpt lat="43.29379" lon="-0.97251">
        <ele>186.008</ele>
        <time>2016-09-25T21:12:22Z</time>
      </trkpt>
      <trkpt lat="43.29339" lon="-0.97294">
        <ele>184.987</ele>
        <time>2016-09-25T21:12:42Z</time>
      </trkpt>
      <trkpt lat="43.29271" lon="-0.97489">
        <ele>188.544</ele>
        <time>2016-09-25T21:13:02Z</time>
      </trkpt>
      <trkpt lat="43.29236" lon="-0.97645">
        <ele>195.064</ele>
        <time>2016-09-25T21:13:22Z</time>
      </trkpt>
      <trkpt lat="43.29193" lon="-0.97684">
        <ele>192.554</ele>
        <time>2016-09-25T21:13:42Z</time>
      </trkpt>
      <trkpt lat="43.29274" lon="-0.97809">
        <ele>177.089</ele>
        <time>2016-09-25T21:14:02Z</time>
      </trkpt>
      <trkpt lat="43.29246" lon="-0.97886">
        <ele>174.328</ele>
        <time>2016-09-25T21:14:22Z</time>
      </trkpt>
      <trkpt lat="43.29205" lon="-0.97931">
        <ele>164.655</ele>
        <time>2016-09-25T21:14:42Z</time>
      </trkpt>
      <trkpt lat="43.29115" lon="-0.97942">
        <ele>148.439</ele>
        <time>2016-09-25T21:15:02Z</time>
      </trkpt>
      <trkpt lat="43.29026" lon="-0.97982">
        <ele>141.919</ele>
        <time>2016-09-25T21:15:22Z</time>
      </trkpt>
      <trkpt lat="43.2893" lon="-0.98152">
        <ele>130.309</ele>
        <time>2016-09-25T21:15:42Z</time>
      </trkpt>
      <trkpt lat="43.28827" lon="-0.98263">
        <ele>121.219</ele>
        <time>2016-09-25T21:16:02Z</time>
      </trkpt>
      <trkpt lat="43.28746" lon="-0.98339">
        <ele>120.108</ele>
        <time>2016-09-25T21:16:22Z</time>
      </trkpt>
      <trkpt lat="43.28687" lon="-0.98583">
        <ele>114.537</ele>
        <time>2016-09-25T21:16:42Z</time>
      </trkpt>
      <trkpt lat="43.28704" lon="-0.98787">
        <ele>105.144</ele>
        <time>2016-09-25T21:17:02Z</time>
      </trkpt>
      <trkpt lat="43.28669" lon="-0.98993">
        <ele>97.734</ele>
        <time>2016-09-25T21:17:22Z</time>
      </trkpt>
      <trkpt lat="43.28699" lon="-0.99006">
        <ele>94.864</ele>
        <time>2016-09-25T21:17:42Z</time>
      </trkpt>
      <trkpt lat="43.28833" lon="-0.99244">
        <ele>92.489</ele>
        <time>2016-09-25T21:18:02Z</time>
      </trkpt>
      <trkpt lat="43.29008" lon="-0.99759">
        <ele>86.638</ele>
        <time>2016-09-25T21:18:22Z</time>
      </trkpt>
      <trkpt lat="43.29229" lon="-0.99969">
        <ele>88.745</ele>
        <time>2016-09-25T21:18:42Z</time>
      </trkpt>
      <trkpt lat="43.2926" lon="-1.00066">
        <ele>90.699</ele>
        <time>2016-09-25T21:19:02Z</time>
      </trkpt>
      <trkpt lat="43.29047" lon="-1.00418">
        <ele>110.058</ele>
        <time>2016-09-25T21:19:22Z</time>
      </trkpt>
      <trkpt lat="43.29044" lon="-1.00577">
        <ele>117.752</ele>
        <time>2016-09-25T21:19:42Z</time>
      </trkpt>
      <trkpt lat="43.29066" lon="-1.00695">
        <ele>125.517</ele>
        <time>2016-09-25T21:20:02Z</time>
      </trkpt>
      <trkpt lat="43.29108" lon="-1.00808">
        <ele>131.308</ele>
        <time>2016-09-25T21:20:22Z</time>
      </trkpt>
      <trkpt lat="43.29099" lon="-1.00862">
        <ele>135.381</ele>
        <time>2016-09-25T21:20:42Z</time>
      </trkpt>
      <trkpt lat="43.29134" lon="-1.01155">
        <ele>132.148</ele>
        <time>2019-03-30T19:59:45Z</time>
      </trkpt>
      <trkpt lat="43.29154" lon="-1.01201">
        <ele>129.528</ele>
        <time>2019-03-30T20:00:05Z</time>
      </trkpt>
      <trkpt lat="43.29261" lon="-1.01235">
        <ele>125.218</ele>
        <time>2019-03-30T20:00:25Z</time>
      </trkpt>
    </trkseg>
  </trk>
</gpx>